<?xml version="1.0" encoding="UTF-8" standalone="no" ?>
<gpx xmlns="http://www.topografix.com/GPX/1/1" xmlns:xsi="http://www.w3.org/2001/XMLSchema-instance" xsi:schemaLocation="http://www.topografix.com/GPX/1/1 http://www.topografix.com/GPX/1/1/gpx.xsd" version="1.1" creator="VisuGPX - https://www.visugpx.com">
  <metadata>
    <name>Mini Raid des Jambes Raides - CO</name>
    <desc><![CDATA[3ème section d'un mini raid organisé par Arnaud.]]></desc>
  </metadata>
  <trk>
    <name><![CDATA[51]]></name>
    <trkseg>
      <trkpt lat="43.74273" lon="7.25558">
        <ele>381</ele>
        <time>2010-08-28T09:34:06Z</time>
      </trkpt>
      <trkpt lat="43.74276" lon="7.25561">
        <ele>381</ele>
        <time>2010-08-28T09:34:12Z</time>
      </trkpt>
      <trkpt lat="43.74278" lon="7.2556">
        <ele>382</ele>
        <time>2010-08-28T09:34:19Z</time>
      </trkpt>
      <trkpt lat="43.74276" lon="7.25561">
        <ele>381</ele>
        <time>2010-08-28T09:34:26Z</time>
      </trkpt>
      <trkpt lat="43.74274" lon="7.25561">
        <ele>381</ele>
        <time>2010-08-28T09:34:30Z</time>
      </trkpt>
      <trkpt lat="43.74278" lon="7.25563">
        <ele>381</ele>
        <time>2010-08-28T09:34:35Z</time>
      </trkpt>
      <trkpt lat="43.74279" lon="7.25562">
        <ele>382</ele>
        <time>2010-08-28T09:34:46Z</time>
      </trkpt>
      <trkpt lat="43.7428" lon="7.25561">
        <ele>382</ele>
        <time>2010-08-28T09:34:53Z</time>
      </trkpt>
      <trkpt lat="43.74281" lon="7.2556">
        <ele>382</ele>
        <time>2010-08-28T09:35:00Z</time>
      </trkpt>
      <trkpt lat="43.74283" lon="7.25564">
        <ele>382</ele>
        <time>2010-08-28T09:35:07Z</time>
      </trkpt>
      <trkpt lat="43.74284" lon="7.25566">
        <ele>382</ele>
        <time>2010-08-28T09:35:12Z</time>
      </trkpt>
      <trkpt lat="43.74285" lon="7.25573">
        <ele>382</ele>
        <time>2010-08-28T09:35:17Z</time>
      </trkpt>
      <trkpt lat="43.74285" lon="7.25575">
        <ele>382</ele>
        <time>2010-08-28T09:35:21Z</time>
      </trkpt>
      <trkpt lat="43.74285" lon="7.25591">
        <ele>379</ele>
        <time>2010-08-28T09:35:30Z</time>
      </trkpt>
      <trkpt lat="43.74285" lon="7.25607">
        <ele>379</ele>
        <time>2010-08-28T09:35:39Z</time>
      </trkpt>
      <trkpt lat="43.74286" lon="7.25609">
        <ele>379</ele>
        <time>2010-08-28T09:35:40Z</time>
      </trkpt>
      <trkpt lat="43.74297" lon="7.25617">
        <ele>380</ele>
        <time>2010-08-28T09:35:45Z</time>
      </trkpt>
      <trkpt lat="43.74307" lon="7.25626">
        <ele>380</ele>
        <time>2010-08-28T09:35:49Z</time>
      </trkpt>
      <trkpt lat="43.74321" lon="7.25628">
        <ele>380</ele>
        <time>2010-08-28T09:35:54Z</time>
      </trkpt>
      <trkpt lat="43.74327" lon="7.25634">
        <ele>380</ele>
        <time>2010-08-28T09:35:56Z</time>
      </trkpt>
      <trkpt lat="43.74334" lon="7.25643">
        <ele>382</ele>
        <time>2010-08-28T09:36:01Z</time>
      </trkpt>
      <trkpt lat="43.74334" lon="7.25643">
        <ele>383</ele>
        <time>2010-08-28T09:36:08Z</time>
      </trkpt>
      <trkpt lat="43.74335" lon="7.25642">
        <ele>383</ele>
        <time>2010-08-28T09:36:13Z</time>
      </trkpt>
      <trkpt lat="43.74336" lon="7.25644">
        <ele>382</ele>
        <time>2010-08-28T09:36:17Z</time>
      </trkpt>
      <trkpt lat="43.74336" lon="7.25642">
        <ele>383</ele>
        <time>2010-08-28T09:36:35Z</time>
      </trkpt>
      <trkpt lat="43.74336" lon="7.25642">
        <ele>383</ele>
        <time>2010-08-28T09:36:46Z</time>
      </trkpt>
      <trkpt lat="43.74336" lon="7.25641">
        <ele>383</ele>
        <time>2010-08-28T09:36:52Z</time>
      </trkpt>
      <trkpt lat="43.74336" lon="7.25641">
        <ele>383</ele>
        <time>2010-08-28T09:36:59Z</time>
      </trkpt>
      <trkpt lat="43.74336" lon="7.25642">
        <ele>383</ele>
        <time>2010-08-28T09:37:07Z</time>
      </trkpt>
      <trkpt lat="43.74335" lon="7.25645">
        <ele>382</ele>
        <time>2010-08-28T09:37:13Z</time>
      </trkpt>
      <trkpt lat="43.74333" lon="7.25652">
        <ele>380</ele>
        <time>2010-08-28T09:37:17Z</time>
      </trkpt>
      <trkpt lat="43.74333" lon="7.2565">
        <ele>380</ele>
        <time>2010-08-28T09:37:35Z</time>
      </trkpt>
      <trkpt lat="43.74334" lon="7.25645">
        <ele>382</ele>
        <time>2010-08-28T09:37:38Z</time>
      </trkpt>
      <trkpt lat="43.74344" lon="7.25643">
        <ele>383</ele>
        <time>2010-08-28T09:37:42Z</time>
      </trkpt>
      <trkpt lat="43.74354" lon="7.25647">
        <ele>383</ele>
        <time>2010-08-28T09:37:45Z</time>
      </trkpt>
      <trkpt lat="43.7437" lon="7.25651">
        <ele>383</ele>
        <time>2010-08-28T09:37:51Z</time>
      </trkpt>
      <trkpt lat="43.74385" lon="7.25653">
        <ele>384</ele>
        <time>2010-08-28T09:37:56Z</time>
      </trkpt>
      <trkpt lat="43.74398" lon="7.2565">
        <ele>384</ele>
        <time>2010-08-28T09:38:01Z</time>
      </trkpt>
      <trkpt lat="43.74401" lon="7.25652">
        <ele>384</ele>
        <time>2010-08-28T09:38:03Z</time>
      </trkpt>
      <trkpt lat="43.74403" lon="7.25654">
        <ele>384</ele>
        <time>2010-08-28T09:38:10Z</time>
      </trkpt>
      <trkpt lat="43.74404" lon="7.25657">
        <ele>384</ele>
        <time>2010-08-28T09:38:15Z</time>
      </trkpt>
      <trkpt lat="43.74414" lon="7.25664">
        <ele>383</ele>
        <time>2010-08-28T09:38:22Z</time>
      </trkpt>
      <trkpt lat="43.74424" lon="7.25672">
        <ele>385</ele>
        <time>2010-08-28T09:38:26Z</time>
      </trkpt>
      <trkpt lat="43.74429" lon="7.25677">
        <ele>386</ele>
        <time>2010-08-28T09:38:28Z</time>
      </trkpt>
      <trkpt lat="43.74436" lon="7.25679">
        <ele>387</ele>
        <time>2010-08-28T09:38:33Z</time>
      </trkpt>
      <trkpt lat="43.74436" lon="7.2568">
        <ele>387</ele>
        <time>2010-08-28T09:38:40Z</time>
      </trkpt>
      <trkpt lat="43.74431" lon="7.25691">
        <ele>388</ele>
        <time>2010-08-28T09:38:44Z</time>
      </trkpt>
      <trkpt lat="43.74424" lon="7.25706">
        <ele>388</ele>
        <time>2010-08-28T09:38:48Z</time>
      </trkpt>
      <trkpt lat="43.74422" lon="7.25717">
        <ele>388</ele>
        <time>2010-08-28T09:38:52Z</time>
      </trkpt>
      <trkpt lat="43.74422" lon="7.2572">
        <ele>388</ele>
        <time>2010-08-28T09:38:58Z</time>
      </trkpt>
      <trkpt lat="43.74422" lon="7.25721">
        <ele>388</ele>
        <time>2010-08-28T09:39:09Z</time>
      </trkpt>
      <trkpt lat="43.74422" lon="7.25724">
        <ele>388</ele>
        <time>2010-08-28T09:39:13Z</time>
      </trkpt>
      <trkpt lat="43.74421" lon="7.25729">
        <ele>387</ele>
        <time>2010-08-28T09:39:19Z</time>
      </trkpt>
      <trkpt lat="43.74421" lon="7.25734">
        <ele>387</ele>
        <time>2010-08-28T09:39:26Z</time>
      </trkpt>
      <trkpt lat="43.74421" lon="7.25738">
        <ele>387</ele>
        <time>2010-08-28T09:39:36Z</time>
      </trkpt>
      <trkpt lat="43.74418" lon="7.25747">
        <ele>385</ele>
        <time>2010-08-28T09:39:43Z</time>
      </trkpt>
      <trkpt lat="43.74418" lon="7.25752">
        <ele>385</ele>
        <time>2010-08-28T09:39:49Z</time>
      </trkpt>
      <trkpt lat="43.74418" lon="7.25758">
        <ele>387</ele>
        <time>2010-08-28T09:39:54Z</time>
      </trkpt>
      <trkpt lat="43.74418" lon="7.25764">
        <ele>388</ele>
        <time>2010-08-28T09:40:00Z</time>
      </trkpt>
      <trkpt lat="43.74416" lon="7.25771">
        <ele>381</ele>
        <time>2010-08-28T09:40:04Z</time>
      </trkpt>
      <trkpt lat="43.74414" lon="7.25787">
        <ele>380</ele>
        <time>2010-08-28T09:40:09Z</time>
      </trkpt>
      <trkpt lat="43.74414" lon="7.25792">
        <ele>380</ele>
        <time>2010-08-28T09:40:11Z</time>
      </trkpt>
      <trkpt lat="43.74418" lon="7.25808">
        <ele>390</ele>
        <time>2010-08-28T09:40:16Z</time>
      </trkpt>
      <trkpt lat="43.74422" lon="7.25822">
        <ele>387</ele>
        <time>2010-08-28T09:40:20Z</time>
      </trkpt>
      <trkpt lat="43.74422" lon="7.25828">
        <ele>386</ele>
        <time>2010-08-28T09:40:22Z</time>
      </trkpt>
      <trkpt lat="43.74422" lon="7.25832">
        <ele>385</ele>
        <time>2010-08-28T09:40:24Z</time>
      </trkpt>
      <trkpt lat="43.74424" lon="7.25837">
        <ele>386</ele>
        <time>2010-08-28T09:40:29Z</time>
      </trkpt>
      <trkpt lat="43.74424" lon="7.2584">
        <ele>387</ele>
        <time>2010-08-28T09:40:33Z</time>
      </trkpt>
      <trkpt lat="43.74424" lon="7.25859">
        <ele>389</ele>
        <time>2010-08-28T09:40:39Z</time>
      </trkpt>
      <trkpt lat="43.74424" lon="7.25879">
        <ele>389</ele>
        <time>2010-08-28T09:40:44Z</time>
      </trkpt>
      <trkpt lat="43.74423" lon="7.25887">
        <ele>388</ele>
        <time>2010-08-28T09:40:46Z</time>
      </trkpt>
      <trkpt lat="43.74432" lon="7.25903">
        <ele>387</ele>
        <time>2010-08-28T09:40:52Z</time>
      </trkpt>
      <trkpt lat="43.74434" lon="7.25906">
        <ele>387</ele>
        <time>2010-08-28T09:40:53Z</time>
      </trkpt>
      <trkpt lat="43.74438" lon="7.2592">
        <ele>383</ele>
        <time>2010-08-28T09:40:57Z</time>
      </trkpt>
      <trkpt lat="43.74439" lon="7.25929">
        <ele>383</ele>
        <time>2010-08-28T09:41:03Z</time>
      </trkpt>
      <trkpt lat="43.74438" lon="7.25929">
        <ele>383</ele>
        <time>2010-08-28T09:41:05Z</time>
      </trkpt>
      <trkpt lat="43.74435" lon="7.25932">
        <ele>383</ele>
        <time>2010-08-28T09:41:11Z</time>
      </trkpt>
      <trkpt lat="43.74439" lon="7.25944">
        <ele>383</ele>
        <time>2010-08-28T09:41:15Z</time>
      </trkpt>
      <trkpt lat="43.74438" lon="7.25959">
        <ele>382</ele>
        <time>2010-08-28T09:41:18Z</time>
      </trkpt>
      <trkpt lat="43.7444" lon="7.25967">
        <ele>382</ele>
        <time>2010-08-28T09:41:21Z</time>
      </trkpt>
      <trkpt lat="43.74445" lon="7.25978">
        <ele>381</ele>
        <time>2010-08-28T09:41:27Z</time>
      </trkpt>
      <trkpt lat="43.74456" lon="7.25991">
        <ele>382</ele>
        <time>2010-08-28T09:41:32Z</time>
      </trkpt>
      <trkpt lat="43.7446" lon="7.26011">
        <ele>374</ele>
        <time>2010-08-28T09:41:36Z</time>
      </trkpt>
      <trkpt lat="43.74467" lon="7.26029">
        <ele>373</ele>
        <time>2010-08-28T09:41:40Z</time>
      </trkpt>
      <trkpt lat="43.74475" lon="7.26042">
        <ele>372</ele>
        <time>2010-08-28T09:41:44Z</time>
      </trkpt>
      <trkpt lat="43.74482" lon="7.26065">
        <ele>370</ele>
        <time>2010-08-28T09:41:49Z</time>
      </trkpt>
      <trkpt lat="43.74493" lon="7.26085">
        <ele>366</ele>
        <time>2010-08-28T09:41:54Z</time>
      </trkpt>
      <trkpt lat="43.74505" lon="7.26098">
        <ele>367</ele>
        <time>2010-08-28T09:41:58Z</time>
      </trkpt>
      <trkpt lat="43.74515" lon="7.26115">
        <ele>365</ele>
        <time>2010-08-28T09:42:02Z</time>
      </trkpt>
      <trkpt lat="43.74529" lon="7.2613">
        <ele>363</ele>
        <time>2010-08-28T09:42:07Z</time>
      </trkpt>
      <trkpt lat="43.74538" lon="7.26142">
        <ele>362</ele>
        <time>2010-08-28T09:42:11Z</time>
      </trkpt>
      <trkpt lat="43.7455" lon="7.26157">
        <ele>361</ele>
        <time>2010-08-28T09:42:16Z</time>
      </trkpt>
      <trkpt lat="43.74552" lon="7.26158">
        <ele>361</ele>
        <time>2010-08-28T09:42:17Z</time>
      </trkpt>
      <trkpt lat="43.74554" lon="7.26156">
        <ele>361</ele>
        <time>2010-08-28T09:42:24Z</time>
      </trkpt>
      <trkpt lat="43.74552" lon="7.26155">
        <ele>361</ele>
        <time>2010-08-28T09:42:35Z</time>
      </trkpt>
      <trkpt lat="43.74551" lon="7.26154">
        <ele>361</ele>
        <time>2010-08-28T09:42:44Z</time>
      </trkpt>
      <trkpt lat="43.74546" lon="7.26145">
        <ele>362</ele>
        <time>2010-08-28T09:42:52Z</time>
      </trkpt>
      <trkpt lat="43.74544" lon="7.26144">
        <ele>362</ele>
        <time>2010-08-28T09:42:54Z</time>
      </trkpt>
      <trkpt lat="43.7454" lon="7.26139">
        <ele>363</ele>
        <time>2010-08-28T09:43:01Z</time>
      </trkpt>
      <trkpt lat="43.74536" lon="7.26135">
        <ele>363</ele>
        <time>2010-08-28T09:43:06Z</time>
      </trkpt>
      <trkpt lat="43.74534" lon="7.26133">
        <ele>363</ele>
        <time>2010-08-28T09:43:08Z</time>
      </trkpt>
      <trkpt lat="43.7453" lon="7.2613">
        <ele>363</ele>
        <time>2010-08-28T09:43:12Z</time>
      </trkpt>
      <trkpt lat="43.74522" lon="7.2612">
        <ele>364</ele>
        <time>2010-08-28T09:43:18Z</time>
      </trkpt>
      <trkpt lat="43.74514" lon="7.26113">
        <ele>365</ele>
        <time>2010-08-28T09:43:22Z</time>
      </trkpt>
      <trkpt lat="43.74512" lon="7.26112">
        <ele>365</ele>
        <time>2010-08-28T09:43:23Z</time>
      </trkpt>
      <trkpt lat="43.74502" lon="7.26096">
        <ele>367</ele>
        <time>2010-08-28T09:43:29Z</time>
      </trkpt>
      <trkpt lat="43.74497" lon="7.26088">
        <ele>366</ele>
        <time>2010-08-28T09:43:32Z</time>
      </trkpt>
      <trkpt lat="43.7449" lon="7.26077">
        <ele>370</ele>
        <time>2010-08-28T09:43:37Z</time>
      </trkpt>
      <trkpt lat="43.74485" lon="7.26068">
        <ele>370</ele>
        <time>2010-08-28T09:43:41Z</time>
      </trkpt>
      <trkpt lat="43.7448" lon="7.26056">
        <ele>371</ele>
        <time>2010-08-28T09:43:46Z</time>
      </trkpt>
      <trkpt lat="43.74479" lon="7.26053">
        <ele>371</ele>
        <time>2010-08-28T09:43:47Z</time>
      </trkpt>
      <trkpt lat="43.74474" lon="7.26038">
        <ele>373</ele>
        <time>2010-08-28T09:43:53Z</time>
      </trkpt>
      <trkpt lat="43.74471" lon="7.26027">
        <ele>374</ele>
        <time>2010-08-28T09:43:58Z</time>
      </trkpt>
      <trkpt lat="43.74466" lon="7.26019">
        <ele>374</ele>
        <time>2010-08-28T09:44:03Z</time>
      </trkpt>
      <trkpt lat="43.74464" lon="7.26013">
        <ele>374</ele>
        <time>2010-08-28T09:44:06Z</time>
      </trkpt>
      <trkpt lat="43.74463" lon="7.26006">
        <ele>374</ele>
        <time>2010-08-28T09:44:10Z</time>
      </trkpt>
      <trkpt lat="43.7446" lon="7.25995">
        <ele>383</ele>
        <time>2010-08-28T09:44:16Z</time>
      </trkpt>
      <trkpt lat="43.74451" lon="7.25982">
        <ele>382</ele>
        <time>2010-08-28T09:44:23Z</time>
      </trkpt>
      <trkpt lat="43.74444" lon="7.25978">
        <ele>381</ele>
        <time>2010-08-28T09:44:28Z</time>
      </trkpt>
      <trkpt lat="43.74443" lon="7.25965">
        <ele>382</ele>
        <time>2010-08-28T09:44:34Z</time>
      </trkpt>
      <trkpt lat="43.74445" lon="7.25965">
        <ele>383</ele>
        <time>2010-08-28T09:44:36Z</time>
      </trkpt>
      <trkpt lat="43.74449" lon="7.25969">
        <ele>383</ele>
        <time>2010-08-28T09:44:43Z</time>
      </trkpt>
      <trkpt lat="43.74455" lon="7.25968">
        <ele>384</ele>
        <time>2010-08-28T09:44:49Z</time>
      </trkpt>
      <trkpt lat="43.74457" lon="7.25967">
        <ele>384</ele>
        <time>2010-08-28T09:44:51Z</time>
      </trkpt>
      <trkpt lat="43.74464" lon="7.25965">
        <ele>385</ele>
        <time>2010-08-28T09:44:57Z</time>
      </trkpt>
      <trkpt lat="43.7447" lon="7.25961">
        <ele>386</ele>
        <time>2010-08-28T09:45:04Z</time>
      </trkpt>
      <trkpt lat="43.74475" lon="7.25958">
        <ele>387</ele>
        <time>2010-08-28T09:45:10Z</time>
      </trkpt>
      <trkpt lat="43.7448" lon="7.25959">
        <ele>388</ele>
        <time>2010-08-28T09:45:15Z</time>
      </trkpt>
      <trkpt lat="43.74485" lon="7.25954">
        <ele>389</ele>
        <time>2010-08-28T09:45:21Z</time>
      </trkpt>
      <trkpt lat="43.74492" lon="7.25954">
        <ele>390</ele>
        <time>2010-08-28T09:45:28Z</time>
      </trkpt>
      <trkpt lat="43.74498" lon="7.25954">
        <ele>390</ele>
        <time>2010-08-28T09:45:34Z</time>
      </trkpt>
      <trkpt lat="43.74503" lon="7.25954">
        <ele>405</ele>
        <time>2010-08-28T09:45:40Z</time>
      </trkpt>
      <trkpt lat="43.74509" lon="7.25952">
        <ele>405</ele>
        <time>2010-08-28T09:45:47Z</time>
      </trkpt>
      <trkpt lat="43.7451" lon="7.25952">
        <ele>406</ele>
        <time>2010-08-28T09:45:48Z</time>
      </trkpt>
      <trkpt lat="43.74515" lon="7.2595">
        <ele>406</ele>
        <time>2010-08-28T09:45:52Z</time>
      </trkpt>
      <trkpt lat="43.74523" lon="7.25948">
        <ele>407</ele>
        <time>2010-08-28T09:45:59Z</time>
      </trkpt>
      <trkpt lat="43.74526" lon="7.25947">
        <ele>408</ele>
        <time>2010-08-28T09:46:02Z</time>
      </trkpt>
      <trkpt lat="43.74527" lon="7.2594">
        <ele>408</ele>
        <time>2010-08-28T09:46:08Z</time>
      </trkpt>
      <trkpt lat="43.74532" lon="7.25936">
        <ele>409</ele>
        <time>2010-08-28T09:46:14Z</time>
      </trkpt>
      <trkpt lat="43.74534" lon="7.25935">
        <ele>409</ele>
        <time>2010-08-28T09:46:20Z</time>
      </trkpt>
      <trkpt lat="43.74539" lon="7.25932">
        <ele>411</ele>
        <time>2010-08-28T09:46:26Z</time>
      </trkpt>
      <trkpt lat="43.74544" lon="7.25927">
        <ele>412</ele>
        <time>2010-08-28T09:46:32Z</time>
      </trkpt>
      <trkpt lat="43.74546" lon="7.2592">
        <ele>413</ele>
        <time>2010-08-28T09:46:38Z</time>
      </trkpt>
      <trkpt lat="43.7455" lon="7.25915">
        <ele>420</ele>
        <time>2010-08-28T09:46:45Z</time>
      </trkpt>
      <trkpt lat="43.74548" lon="7.25905">
        <ele>420</ele>
        <time>2010-08-28T09:46:52Z</time>
      </trkpt>
      <trkpt lat="43.74548" lon="7.25903">
        <ele>420</ele>
        <time>2010-08-28T09:46:53Z</time>
      </trkpt>
      <trkpt lat="43.74548" lon="7.25894">
        <ele>420</ele>
        <time>2010-08-28T09:47:00Z</time>
      </trkpt>
      <trkpt lat="43.74549" lon="7.25887">
        <ele>420</ele>
        <time>2010-08-28T09:47:06Z</time>
      </trkpt>
      <trkpt lat="43.74551" lon="7.25879">
        <ele>421</ele>
        <time>2010-08-28T09:47:12Z</time>
      </trkpt>
      <trkpt lat="43.74553" lon="7.25872">
        <ele>421</ele>
        <time>2010-08-28T09:47:17Z</time>
      </trkpt>
      <trkpt lat="43.74557" lon="7.25872">
        <ele>421</ele>
        <time>2010-08-28T09:47:21Z</time>
      </trkpt>
      <trkpt lat="43.7456" lon="7.25872">
        <ele>422</ele>
        <time>2010-08-28T09:47:28Z</time>
      </trkpt>
      <trkpt lat="43.74565" lon="7.25873">
        <ele>422</ele>
        <time>2010-08-28T09:47:34Z</time>
      </trkpt>
      <trkpt lat="43.74571" lon="7.25874">
        <ele>423</ele>
        <time>2010-08-28T09:47:40Z</time>
      </trkpt>
      <trkpt lat="43.74573" lon="7.25875">
        <ele>423</ele>
        <time>2010-08-28T09:47:42Z</time>
      </trkpt>
      <trkpt lat="43.74574" lon="7.25876">
        <ele>423</ele>
        <time>2010-08-28T09:47:48Z</time>
      </trkpt>
      <trkpt lat="43.74577" lon="7.25873">
        <ele>423</ele>
        <time>2010-08-28T09:47:53Z</time>
      </trkpt>
      <trkpt lat="43.74582" lon="7.25873">
        <ele>424</ele>
        <time>2010-08-28T09:47:58Z</time>
      </trkpt>
      <trkpt lat="43.74584" lon="7.25874">
        <ele>435</ele>
        <time>2010-08-28T09:48:00Z</time>
      </trkpt>
      <trkpt lat="43.74593" lon="7.25875">
        <ele>435</ele>
        <time>2010-08-28T09:48:08Z</time>
      </trkpt>
      <trkpt lat="43.74598" lon="7.25877">
        <ele>435</ele>
        <time>2010-08-28T09:48:13Z</time>
      </trkpt>
      <trkpt lat="43.74599" lon="7.25877">
        <ele>435</ele>
        <time>2010-08-28T09:48:14Z</time>
      </trkpt>
      <trkpt lat="43.74605" lon="7.25879">
        <ele>436</ele>
        <time>2010-08-28T09:48:21Z</time>
      </trkpt>
      <trkpt lat="43.74608" lon="7.25885">
        <ele>436</ele>
        <time>2010-08-28T09:48:26Z</time>
      </trkpt>
      <trkpt lat="43.74613" lon="7.25885">
        <ele>436</ele>
        <time>2010-08-28T09:48:30Z</time>
      </trkpt>
      <trkpt lat="43.74617" lon="7.25889">
        <ele>436</ele>
        <time>2010-08-28T09:48:36Z</time>
      </trkpt>
      <trkpt lat="43.7462" lon="7.25893">
        <ele>437</ele>
        <time>2010-08-28T09:48:42Z</time>
      </trkpt>
      <trkpt lat="43.7462" lon="7.25892">
        <ele>437</ele>
        <time>2010-08-28T09:48:52Z</time>
      </trkpt>
      <trkpt lat="43.74619" lon="7.25892">
        <ele>437</ele>
        <time>2010-08-28T09:49:00Z</time>
      </trkpt>
      <trkpt lat="43.74616" lon="7.25889">
        <ele>436</ele>
        <time>2010-08-28T09:49:06Z</time>
      </trkpt>
      <trkpt lat="43.74614" lon="7.25883">
        <ele>436</ele>
        <time>2010-08-28T09:49:11Z</time>
      </trkpt>
      <trkpt lat="43.74617" lon="7.25878">
        <ele>437</ele>
        <time>2010-08-28T09:49:17Z</time>
      </trkpt>
      <trkpt lat="43.74614" lon="7.25875">
        <ele>436</ele>
        <time>2010-08-28T09:49:21Z</time>
      </trkpt>
      <trkpt lat="43.74617" lon="7.25867">
        <ele>437</ele>
        <time>2010-08-28T09:49:26Z</time>
      </trkpt>
      <trkpt lat="43.74624" lon="7.25864">
        <ele>437</ele>
        <time>2010-08-28T09:49:31Z</time>
      </trkpt>
      <trkpt lat="43.74626" lon="7.25864">
        <ele>437</ele>
        <time>2010-08-28T09:49:33Z</time>
      </trkpt>
      <trkpt lat="43.74631" lon="7.2586">
        <ele>438</ele>
        <time>2010-08-28T09:49:40Z</time>
      </trkpt>
      <trkpt lat="43.74635" lon="7.25857">
        <ele>438</ele>
        <time>2010-08-28T09:49:46Z</time>
      </trkpt>
      <trkpt lat="43.74637" lon="7.25856">
        <ele>438</ele>
        <time>2010-08-28T09:49:52Z</time>
      </trkpt>
      <trkpt lat="43.74648" lon="7.2585">
        <ele>440</ele>
        <time>2010-08-28T09:50:00Z</time>
      </trkpt>
      <trkpt lat="43.74652" lon="7.25847">
        <ele>440</ele>
        <time>2010-08-28T09:50:03Z</time>
      </trkpt>
      <trkpt lat="43.74657" lon="7.25851">
        <ele>440</ele>
        <time>2010-08-28T09:50:07Z</time>
      </trkpt>
      <trkpt lat="43.74669" lon="7.25862">
        <ele>448</ele>
        <time>2010-08-28T09:50:14Z</time>
      </trkpt>
      <trkpt lat="43.74682" lon="7.25874">
        <ele>449</ele>
        <time>2010-08-28T09:50:20Z</time>
      </trkpt>
      <trkpt lat="43.74682" lon="7.25884">
        <ele>449</ele>
        <time>2010-08-28T09:50:26Z</time>
      </trkpt>
      <trkpt lat="43.74682" lon="7.25888">
        <ele>449</ele>
        <time>2010-08-28T09:50:28Z</time>
      </trkpt>
      <trkpt lat="43.74684" lon="7.2589">
        <ele>449</ele>
        <time>2010-08-28T09:50:30Z</time>
      </trkpt>
      <trkpt lat="43.74687" lon="7.25887">
        <ele>449</ele>
        <time>2010-08-28T09:50:36Z</time>
      </trkpt>
      <trkpt lat="43.74692" lon="7.25888">
        <ele>450</ele>
        <time>2010-08-28T09:50:42Z</time>
      </trkpt>
      <trkpt lat="43.74698" lon="7.25889">
        <ele>450</ele>
        <time>2010-08-28T09:50:48Z</time>
      </trkpt>
      <trkpt lat="43.74707" lon="7.25891">
        <ele>451</ele>
        <time>2010-08-28T09:50:55Z</time>
      </trkpt>
      <trkpt lat="43.7471" lon="7.25892">
        <ele>451</ele>
        <time>2010-08-28T09:50:58Z</time>
      </trkpt>
      <trkpt lat="43.74711" lon="7.25889">
        <ele>452</ele>
        <time>2010-08-28T09:51:03Z</time>
      </trkpt>
      <trkpt lat="43.74716" lon="7.25892">
        <ele>452</ele>
        <time>2010-08-28T09:51:10Z</time>
      </trkpt>
      <trkpt lat="43.74716" lon="7.25895">
        <ele>452</ele>
        <time>2010-08-28T09:51:16Z</time>
      </trkpt>
      <trkpt lat="43.74716" lon="7.25897">
        <ele>452</ele>
        <time>2010-08-28T09:51:20Z</time>
      </trkpt>
      <trkpt lat="43.74714" lon="7.25895">
        <ele>452</ele>
        <time>2010-08-28T09:51:25Z</time>
      </trkpt>
      <trkpt lat="43.74711" lon="7.25891">
        <ele>452</ele>
        <time>2010-08-28T09:51:29Z</time>
      </trkpt>
      <trkpt lat="43.74711" lon="7.25882">
        <ele>452</ele>
        <time>2010-08-28T09:51:36Z</time>
      </trkpt>
      <trkpt lat="43.74713" lon="7.25887">
        <ele>452</ele>
        <time>2010-08-28T09:51:39Z</time>
      </trkpt>
      <trkpt lat="43.74716" lon="7.25889">
        <ele>452</ele>
        <time>2010-08-28T09:51:45Z</time>
      </trkpt>
      <trkpt lat="43.74714" lon="7.25886">
        <ele>452</ele>
        <time>2010-08-28T09:52:02Z</time>
      </trkpt>
      <trkpt lat="43.74711" lon="7.25885">
        <ele>452</ele>
        <time>2010-08-28T09:52:14Z</time>
      </trkpt>
      <trkpt lat="43.74711" lon="7.2588">
        <ele>452</ele>
        <time>2010-08-28T09:52:20Z</time>
      </trkpt>
      <trkpt lat="43.74713" lon="7.25879">
        <ele>452</ele>
        <time>2010-08-28T09:52:32Z</time>
      </trkpt>
      <trkpt lat="43.74717" lon="7.25882">
        <ele>452</ele>
        <time>2010-08-28T09:52:39Z</time>
      </trkpt>
      <trkpt lat="43.74719" lon="7.25884">
        <ele>452</ele>
        <time>2010-08-28T09:52:48Z</time>
      </trkpt>
      <trkpt lat="43.74723" lon="7.25889">
        <ele>453</ele>
        <time>2010-08-28T09:52:54Z</time>
      </trkpt>
      <trkpt lat="43.74725" lon="7.25889">
        <ele>453</ele>
        <time>2010-08-28T09:53:03Z</time>
      </trkpt>
      <trkpt lat="43.74726" lon="7.25889">
        <ele>453</ele>
        <time>2010-08-28T09:53:10Z</time>
      </trkpt>
      <trkpt lat="43.74727" lon="7.25893">
        <ele>453</ele>
        <time>2010-08-28T09:53:16Z</time>
      </trkpt>
      <trkpt lat="43.74733" lon="7.25897">
        <ele>454</ele>
        <time>2010-08-28T09:53:21Z</time>
      </trkpt>
      <trkpt lat="43.74743" lon="7.25905">
        <ele>455</ele>
        <time>2010-08-28T09:53:26Z</time>
      </trkpt>
      <trkpt lat="43.74759" lon="7.25916">
        <ele>460</ele>
        <time>2010-08-28T09:53:33Z</time>
      </trkpt>
      <trkpt lat="43.74761" lon="7.25916">
        <ele>460</ele>
        <time>2010-08-28T09:53:34Z</time>
      </trkpt>
      <trkpt lat="43.74768" lon="7.25921">
        <ele>454</ele>
        <time>2010-08-28T09:53:37Z</time>
      </trkpt>
      <trkpt lat="43.74776" lon="7.25927">
        <ele>454</ele>
        <time>2010-08-28T09:53:43Z</time>
      </trkpt>
      <trkpt lat="43.74778" lon="7.25928">
        <ele>453</ele>
        <time>2010-08-28T09:53:45Z</time>
      </trkpt>
      <trkpt lat="43.74784" lon="7.2593">
        <ele>453</ele>
        <time>2010-08-28T09:53:49Z</time>
      </trkpt>
      <trkpt lat="43.74787" lon="7.25933">
        <ele>453</ele>
        <time>2010-08-28T09:53:52Z</time>
      </trkpt>
      <trkpt lat="43.7479" lon="7.25934">
        <ele>453</ele>
        <time>2010-08-28T09:53:55Z</time>
      </trkpt>
      <trkpt lat="43.74797" lon="7.25938">
        <ele>453</ele>
        <time>2010-08-28T09:54:00Z</time>
      </trkpt>
      <trkpt lat="43.74804" lon="7.25935">
        <ele>454</ele>
        <time>2010-08-28T09:54:02Z</time>
      </trkpt>
      <trkpt lat="43.74809" lon="7.25934">
        <ele>455</ele>
        <time>2010-08-28T09:54:04Z</time>
      </trkpt>
      <trkpt lat="43.74818" lon="7.25939">
        <ele>455</ele>
        <time>2010-08-28T09:54:09Z</time>
      </trkpt>
      <trkpt lat="43.74824" lon="7.25941">
        <ele>456</ele>
        <time>2010-08-28T09:54:12Z</time>
      </trkpt>
      <trkpt lat="43.74833" lon="7.25948">
        <ele>455</ele>
        <time>2010-08-28T09:54:17Z</time>
      </trkpt>
      <trkpt lat="43.74838" lon="7.25951">
        <ele>459</ele>
        <time>2010-08-28T09:54:20Z</time>
      </trkpt>
      <trkpt lat="43.74849" lon="7.25958">
        <ele>458</ele>
        <time>2010-08-28T09:54:26Z</time>
      </trkpt>
      <trkpt lat="43.74851" lon="7.25959">
        <ele>458</ele>
        <time>2010-08-28T09:54:27Z</time>
      </trkpt>
      <trkpt lat="43.74862" lon="7.25965">
        <ele>458</ele>
        <time>2010-08-28T09:54:32Z</time>
      </trkpt>
      <trkpt lat="43.74872" lon="7.2597">
        <ele>458</ele>
        <time>2010-08-28T09:54:37Z</time>
      </trkpt>
      <trkpt lat="43.74882" lon="7.25973">
        <ele>459</ele>
        <time>2010-08-28T09:54:42Z</time>
      </trkpt>
      <trkpt lat="43.74893" lon="7.25978">
        <ele>459</ele>
        <time>2010-08-28T09:54:47Z</time>
      </trkpt>
      <trkpt lat="43.74894" lon="7.25979">
        <ele>459</ele>
        <time>2010-08-28T09:54:48Z</time>
      </trkpt>
      <trkpt lat="43.74899" lon="7.2598">
        <ele>459</ele>
        <time>2010-08-28T09:54:53Z</time>
      </trkpt>
      <trkpt lat="43.74901" lon="7.25981">
        <ele>459</ele>
        <time>2010-08-28T09:55:00Z</time>
      </trkpt>
      <trkpt lat="43.74906" lon="7.25983">
        <ele>459</ele>
        <time>2010-08-28T09:55:05Z</time>
      </trkpt>
      <trkpt lat="43.74913" lon="7.25991">
        <ele>458</ele>
        <time>2010-08-28T09:55:10Z</time>
      </trkpt>
      <trkpt lat="43.74922" lon="7.25994">
        <ele>461</ele>
        <time>2010-08-28T09:55:15Z</time>
      </trkpt>
      <trkpt lat="43.74927" lon="7.26001">
        <ele>456</ele>
        <time>2010-08-28T09:55:20Z</time>
      </trkpt>
      <trkpt lat="43.74927" lon="7.26001">
        <ele>456</ele>
        <time>2010-08-28T09:55:21Z</time>
      </trkpt>
      <trkpt lat="43.74933" lon="7.26003">
        <ele>455</ele>
        <time>2010-08-28T09:55:24Z</time>
      </trkpt>
      <trkpt lat="43.74942" lon="7.26005">
        <ele>454</ele>
        <time>2010-08-28T09:55:29Z</time>
      </trkpt>
      <trkpt lat="43.74945" lon="7.26007">
        <ele>454</ele>
        <time>2010-08-28T09:55:31Z</time>
      </trkpt>
      <trkpt lat="43.74948" lon="7.26007">
        <ele>454</ele>
        <time>2010-08-28T09:55:43Z</time>
      </trkpt>
      <trkpt lat="43.74949" lon="7.26009">
        <ele>454</ele>
        <time>2010-08-28T09:55:45Z</time>
      </trkpt>
      <trkpt lat="43.74955" lon="7.26016">
        <ele>454</ele>
        <time>2010-08-28T09:55:51Z</time>
      </trkpt>
      <trkpt lat="43.74958" lon="7.2602">
        <ele>454</ele>
        <time>2010-08-28T09:55:57Z</time>
      </trkpt>
      <trkpt lat="43.74958" lon="7.2602">
        <ele>454</ele>
        <time>2010-08-28T09:56:05Z</time>
      </trkpt>
      <trkpt lat="43.74959" lon="7.26021">
        <ele>454</ele>
        <time>2010-08-28T09:56:16Z</time>
      </trkpt>
      <trkpt lat="43.74968" lon="7.26033">
        <ele>453</ele>
        <time>2010-08-28T09:56:23Z</time>
      </trkpt>
      <trkpt lat="43.74974" lon="7.26035">
        <ele>453</ele>
        <time>2010-08-28T09:56:27Z</time>
      </trkpt>
      <trkpt lat="43.74975" lon="7.26036">
        <ele>453</ele>
        <time>2010-08-28T09:56:28Z</time>
      </trkpt>
      <trkpt lat="43.74983" lon="7.26041">
        <ele>452</ele>
        <time>2010-08-28T09:56:36Z</time>
      </trkpt>
      <trkpt lat="43.74986" lon="7.26041">
        <ele>452</ele>
        <time>2010-08-28T09:56:42Z</time>
      </trkpt>
      <trkpt lat="43.74985" lon="7.26043">
        <ele>451</ele>
        <time>2010-08-28T09:56:48Z</time>
      </trkpt>
      <trkpt lat="43.74987" lon="7.26044">
        <ele>451</ele>
        <time>2010-08-28T09:56:55Z</time>
      </trkpt>
      <trkpt lat="43.74988" lon="7.26044">
        <ele>451</ele>
        <time>2010-08-28T09:57:04Z</time>
      </trkpt>
      <trkpt lat="43.74988" lon="7.26044">
        <ele>451</ele>
        <time>2010-08-28T09:57:19Z</time>
      </trkpt>
      <trkpt lat="43.74989" lon="7.26044">
        <ele>451</ele>
        <time>2010-08-28T09:57:26Z</time>
      </trkpt>
      <trkpt lat="43.74992" lon="7.26042">
        <ele>452</ele>
        <time>2010-08-28T09:57:32Z</time>
      </trkpt>
      <trkpt lat="43.74996" lon="7.26041">
        <ele>452</ele>
        <time>2010-08-28T09:57:37Z</time>
      </trkpt>
      <trkpt lat="43.74998" lon="7.26041">
        <ele>452</ele>
        <time>2010-08-28T09:57:43Z</time>
      </trkpt>
      <trkpt lat="43.74998" lon="7.26038">
        <ele>453</ele>
        <time>2010-08-28T09:57:49Z</time>
      </trkpt>
      <trkpt lat="43.74998" lon="7.26033">
        <ele>455</ele>
        <time>2010-08-28T09:57:53Z</time>
      </trkpt>
      <trkpt lat="43.75001" lon="7.26028">
        <ele>459</ele>
        <time>2010-08-28T09:57:58Z</time>
      </trkpt>
      <trkpt lat="43.75005" lon="7.26027">
        <ele>459</ele>
        <time>2010-08-28T09:58:01Z</time>
      </trkpt>
      <trkpt lat="43.75009" lon="7.26024">
        <ele>460</ele>
        <time>2010-08-28T09:58:06Z</time>
      </trkpt>
      <trkpt lat="43.75014" lon="7.26023">
        <ele>459</ele>
        <time>2010-08-28T09:58:12Z</time>
      </trkpt>
      <trkpt lat="43.75023" lon="7.26019">
        <ele>460</ele>
        <time>2010-08-28T09:58:19Z</time>
      </trkpt>
      <trkpt lat="43.75028" lon="7.26014">
        <ele>460</ele>
        <time>2010-08-28T09:58:26Z</time>
      </trkpt>
      <trkpt lat="43.75034" lon="7.2601">
        <ele>460</ele>
        <time>2010-08-28T09:58:31Z</time>
      </trkpt>
      <trkpt lat="43.75042" lon="7.26006">
        <ele>460</ele>
        <time>2010-08-28T09:58:38Z</time>
      </trkpt>
      <trkpt lat="43.75047" lon="7.26004">
        <ele>461</ele>
        <time>2010-08-28T09:58:43Z</time>
      </trkpt>
      <trkpt lat="43.75048" lon="7.26002">
        <ele>461</ele>
        <time>2010-08-28T09:58:45Z</time>
      </trkpt>
      <trkpt lat="43.75053" lon="7.25996">
        <ele>473</ele>
        <time>2010-08-28T09:58:52Z</time>
      </trkpt>
      <trkpt lat="43.75059" lon="7.25993">
        <ele>473</ele>
        <time>2010-08-28T09:58:57Z</time>
      </trkpt>
      <trkpt lat="43.75067" lon="7.25988">
        <ele>473</ele>
        <time>2010-08-28T09:59:04Z</time>
      </trkpt>
      <trkpt lat="43.75068" lon="7.25987">
        <ele>473</ele>
        <time>2010-08-28T09:59:05Z</time>
      </trkpt>
      <trkpt lat="43.75073" lon="7.25986">
        <ele>473</ele>
        <time>2010-08-28T09:59:09Z</time>
      </trkpt>
      <trkpt lat="43.75082" lon="7.25982">
        <ele>473</ele>
        <time>2010-08-28T09:59:16Z</time>
      </trkpt>
      <trkpt lat="43.75087" lon="7.2598">
        <ele>476</ele>
        <time>2010-08-28T09:59:20Z</time>
      </trkpt>
      <trkpt lat="43.75093" lon="7.25972">
        <ele>477</ele>
        <time>2010-08-28T09:59:27Z</time>
      </trkpt>
      <trkpt lat="43.75094" lon="7.25971">
        <ele>477</ele>
        <time>2010-08-28T09:59:28Z</time>
      </trkpt>
      <trkpt lat="43.75098" lon="7.2596">
        <ele>478</ele>
        <time>2010-08-28T09:59:35Z</time>
      </trkpt>
      <trkpt lat="43.75102" lon="7.25955">
        <ele>479</ele>
        <time>2010-08-28T09:59:39Z</time>
      </trkpt>
      <trkpt lat="43.75106" lon="7.25952">
        <ele>479</ele>
        <time>2010-08-28T09:59:43Z</time>
      </trkpt>
      <trkpt lat="43.75111" lon="7.25944">
        <ele>480</ele>
        <time>2010-08-28T09:59:49Z</time>
      </trkpt>
      <trkpt lat="43.75114" lon="7.25942">
        <ele>480</ele>
        <time>2010-08-28T09:59:54Z</time>
      </trkpt>
      <trkpt lat="43.75115" lon="7.25941">
        <ele>480</ele>
        <time>2010-08-28T09:59:56Z</time>
      </trkpt>
      <trkpt lat="43.7512" lon="7.2593">
        <ele>480</ele>
        <time>2010-08-28T10:00:03Z</time>
      </trkpt>
      <trkpt lat="43.75122" lon="7.25925">
        <ele>481</ele>
        <time>2010-08-28T10:00:06Z</time>
      </trkpt>
      <trkpt lat="43.75127" lon="7.25921">
        <ele>481</ele>
        <time>2010-08-28T10:00:10Z</time>
      </trkpt>
      <trkpt lat="43.75136" lon="7.25909">
        <ele>481</ele>
        <time>2010-08-28T10:00:16Z</time>
      </trkpt>
      <trkpt lat="43.75138" lon="7.25907">
        <ele>482</ele>
        <time>2010-08-28T10:00:17Z</time>
      </trkpt>
      <trkpt lat="43.7514" lon="7.25904">
        <ele>482</ele>
        <time>2010-08-28T10:00:23Z</time>
      </trkpt>
      <trkpt lat="43.75144" lon="7.25905">
        <ele>482</ele>
        <time>2010-08-28T10:00:31Z</time>
      </trkpt>
      <trkpt lat="43.75148" lon="7.25905">
        <ele>482</ele>
        <time>2010-08-28T10:00:33Z</time>
      </trkpt>
      <trkpt lat="43.75163" lon="7.25902">
        <ele>483</ele>
        <time>2010-08-28T10:00:39Z</time>
      </trkpt>
      <trkpt lat="43.7517" lon="7.25901">
        <ele>487</ele>
        <time>2010-08-28T10:00:42Z</time>
      </trkpt>
      <trkpt lat="43.7518" lon="7.25898">
        <ele>487</ele>
        <time>2010-08-28T10:00:49Z</time>
      </trkpt>
      <trkpt lat="43.75184" lon="7.25899">
        <ele>487</ele>
        <time>2010-08-28T10:00:54Z</time>
      </trkpt>
      <trkpt lat="43.75189" lon="7.25896">
        <ele>487</ele>
        <time>2010-08-28T10:00:57Z</time>
      </trkpt>
      <trkpt lat="43.75194" lon="7.25898">
        <ele>487</ele>
        <time>2010-08-28T10:01:02Z</time>
      </trkpt>
      <trkpt lat="43.75197" lon="7.25899">
        <ele>488</ele>
        <time>2010-08-28T10:01:14Z</time>
      </trkpt>
      <trkpt lat="43.75203" lon="7.259">
        <ele>488</ele>
        <time>2010-08-28T10:01:20Z</time>
      </trkpt>
      <trkpt lat="43.75205" lon="7.25902">
        <ele>488</ele>
        <time>2010-08-28T10:01:22Z</time>
      </trkpt>
      <trkpt lat="43.75206" lon="7.25901">
        <ele>488</ele>
        <time>2010-08-28T10:01:24Z</time>
      </trkpt>
      <trkpt lat="43.75212" lon="7.25898">
        <ele>488</ele>
        <time>2010-08-28T10:01:30Z</time>
      </trkpt>
      <trkpt lat="43.75213" lon="7.259">
        <ele>489</ele>
        <time>2010-08-28T10:01:31Z</time>
      </trkpt>
      <trkpt lat="43.75214" lon="7.25909">
        <ele>489</ele>
        <time>2010-08-28T10:01:37Z</time>
      </trkpt>
      <trkpt lat="43.75218" lon="7.25915">
        <ele>490</ele>
        <time>2010-08-28T10:01:42Z</time>
      </trkpt>
      <trkpt lat="43.75225" lon="7.25915">
        <ele>490</ele>
        <time>2010-08-28T10:01:48Z</time>
      </trkpt>
      <trkpt lat="43.75227" lon="7.25918">
        <ele>491</ele>
        <time>2010-08-28T10:01:51Z</time>
      </trkpt>
      <trkpt lat="43.75233" lon="7.25918">
        <ele>491</ele>
        <time>2010-08-28T10:01:56Z</time>
      </trkpt>
      <trkpt lat="43.75243" lon="7.25921">
        <ele>493</ele>
        <time>2010-08-28T10:02:04Z</time>
      </trkpt>
      <trkpt lat="43.75249" lon="7.25923">
        <ele>494</ele>
        <time>2010-08-28T10:02:10Z</time>
      </trkpt>
      <trkpt lat="43.75253" lon="7.25922">
        <ele>495</ele>
        <time>2010-08-28T10:02:16Z</time>
      </trkpt>
      <trkpt lat="43.75259" lon="7.25922">
        <ele>495</ele>
        <time>2010-08-28T10:02:21Z</time>
      </trkpt>
      <trkpt lat="43.7526" lon="7.25923">
        <ele>495</ele>
        <time>2010-08-28T10:02:22Z</time>
      </trkpt>
      <trkpt lat="43.75267" lon="7.25924">
        <ele>494</ele>
        <time>2010-08-28T10:02:27Z</time>
      </trkpt>
      <trkpt lat="43.75273" lon="7.25922">
        <ele>494</ele>
        <time>2010-08-28T10:02:30Z</time>
      </trkpt>
      <trkpt lat="43.75282" lon="7.2592">
        <ele>495</ele>
        <time>2010-08-28T10:02:37Z</time>
      </trkpt>
      <trkpt lat="43.75293" lon="7.25919">
        <ele>495</ele>
        <time>2010-08-28T10:02:42Z</time>
      </trkpt>
      <trkpt lat="43.75299" lon="7.25915">
        <ele>497</ele>
        <time>2010-08-28T10:02:47Z</time>
      </trkpt>
      <trkpt lat="43.75305" lon="7.25913">
        <ele>498</ele>
        <time>2010-08-28T10:02:52Z</time>
      </trkpt>
      <trkpt lat="43.75312" lon="7.2591">
        <ele>498</ele>
        <time>2010-08-28T10:02:57Z</time>
      </trkpt>
      <trkpt lat="43.75317" lon="7.25909">
        <ele>499</ele>
        <time>2010-08-28T10:03:02Z</time>
      </trkpt>
      <trkpt lat="43.75317" lon="7.2591">
        <ele>499</ele>
        <time>2010-08-28T10:03:06Z</time>
      </trkpt>
      <trkpt lat="43.75317" lon="7.25909">
        <ele>499</ele>
        <time>2010-08-28T10:03:21Z</time>
      </trkpt>
      <trkpt lat="43.75316" lon="7.2591">
        <ele>499</ele>
        <time>2010-08-28T10:03:33Z</time>
      </trkpt>
      <trkpt lat="43.75315" lon="7.25911">
        <ele>499</ele>
        <time>2010-08-28T10:03:39Z</time>
      </trkpt>
      <trkpt lat="43.75312" lon="7.2591">
        <ele>498</ele>
        <time>2010-08-28T10:03:58Z</time>
      </trkpt>
      <trkpt lat="43.75308" lon="7.25909">
        <ele>498</ele>
        <time>2010-08-28T10:04:03Z</time>
      </trkpt>
      <trkpt lat="43.75308" lon="7.25909">
        <ele>498</ele>
        <time>2010-08-28T10:04:12Z</time>
      </trkpt>
      <trkpt lat="43.75307" lon="7.2591">
        <ele>498</ele>
        <time>2010-08-28T10:04:21Z</time>
      </trkpt>
      <trkpt lat="43.75305" lon="7.2591">
        <ele>497</ele>
        <time>2010-08-28T10:04:29Z</time>
      </trkpt>
      <trkpt lat="43.75303" lon="7.2591">
        <ele>497</ele>
        <time>2010-08-28T10:04:30Z</time>
      </trkpt>
      <trkpt lat="43.75298" lon="7.2591">
        <ele>497</ele>
        <time>2010-08-28T10:04:35Z</time>
      </trkpt>
      <trkpt lat="43.75294" lon="7.25916">
        <ele>497</ele>
        <time>2010-08-28T10:04:41Z</time>
      </trkpt>
      <trkpt lat="43.75288" lon="7.2592">
        <ele>495</ele>
        <time>2010-08-28T10:04:46Z</time>
      </trkpt>
      <trkpt lat="43.75279" lon="7.25921">
        <ele>494</ele>
        <time>2010-08-28T10:04:50Z</time>
      </trkpt>
      <trkpt lat="43.75275" lon="7.25923">
        <ele>494</ele>
        <time>2010-08-28T10:04:52Z</time>
      </trkpt>
      <trkpt lat="43.75263" lon="7.25927">
        <ele>494</ele>
        <time>2010-08-28T10:04:57Z</time>
      </trkpt>
      <trkpt lat="43.75253" lon="7.25926">
        <ele>495</ele>
        <time>2010-08-28T10:05:02Z</time>
      </trkpt>
      <trkpt lat="43.7525" lon="7.25919">
        <ele>496</ele>
        <time>2010-08-28T10:05:07Z</time>
      </trkpt>
      <trkpt lat="43.75251" lon="7.25917">
        <ele>496</ele>
        <time>2010-08-28T10:05:09Z</time>
      </trkpt>
      <trkpt lat="43.75254" lon="7.25902">
        <ele>495</ele>
        <time>2010-08-28T10:05:17Z</time>
      </trkpt>
      <trkpt lat="43.75258" lon="7.25884">
        <ele>495</ele>
        <time>2010-08-28T10:05:23Z</time>
      </trkpt>
      <trkpt lat="43.75265" lon="7.25862">
        <ele>493</ele>
        <time>2010-08-28T10:05:28Z</time>
      </trkpt>
      <trkpt lat="43.75266" lon="7.25846">
        <ele>492</ele>
        <time>2010-08-28T10:05:32Z</time>
      </trkpt>
      <trkpt lat="43.75267" lon="7.25844">
        <ele>492</ele>
        <time>2010-08-28T10:05:33Z</time>
      </trkpt>
      <trkpt lat="43.75268" lon="7.2584">
        <ele>491</ele>
        <time>2010-08-28T10:05:38Z</time>
      </trkpt>
      <trkpt lat="43.75271" lon="7.25823">
        <ele>487</ele>
        <time>2010-08-28T10:05:43Z</time>
      </trkpt>
      <trkpt lat="43.75277" lon="7.25799">
        <ele>487</ele>
        <time>2010-08-28T10:05:48Z</time>
      </trkpt>
      <trkpt lat="43.75282" lon="7.25778">
        <ele>486</ele>
        <time>2010-08-28T10:05:52Z</time>
      </trkpt>
      <trkpt lat="43.75287" lon="7.25759">
        <ele>486</ele>
        <time>2010-08-28T10:05:56Z</time>
      </trkpt>
      <trkpt lat="43.75291" lon="7.25742">
        <ele>479</ele>
        <time>2010-08-28T10:06:00Z</time>
      </trkpt>
      <trkpt lat="43.75295" lon="7.25721">
        <ele>478</ele>
        <time>2010-08-28T10:06:05Z</time>
      </trkpt>
      <trkpt lat="43.753" lon="7.25701">
        <ele>477</ele>
        <time>2010-08-28T10:06:10Z</time>
      </trkpt>
      <trkpt lat="43.75301" lon="7.25698">
        <ele>476</ele>
        <time>2010-08-28T10:06:11Z</time>
      </trkpt>
      <trkpt lat="43.75306" lon="7.25679">
        <ele>475</ele>
        <time>2010-08-28T10:06:16Z</time>
      </trkpt>
      <trkpt lat="43.75311" lon="7.25661">
        <ele>468</ele>
        <time>2010-08-28T10:06:21Z</time>
      </trkpt>
      <trkpt lat="43.75315" lon="7.25642">
        <ele>466</ele>
        <time>2010-08-28T10:06:26Z</time>
      </trkpt>
      <trkpt lat="43.75318" lon="7.25629">
        <ele>465</ele>
        <time>2010-08-28T10:06:29Z</time>
      </trkpt>
      <trkpt lat="43.75321" lon="7.25618">
        <ele>464</ele>
        <time>2010-08-28T10:06:32Z</time>
      </trkpt>
      <trkpt lat="43.75326" lon="7.25603">
        <ele>463</ele>
        <time>2010-08-28T10:06:36Z</time>
      </trkpt>
      <trkpt lat="43.7533" lon="7.25588">
        <ele>462</ele>
        <time>2010-08-28T10:06:40Z</time>
      </trkpt>
      <trkpt lat="43.75334" lon="7.25573">
        <ele>461</ele>
        <time>2010-08-28T10:06:44Z</time>
      </trkpt>
      <trkpt lat="43.75338" lon="7.25557">
        <ele>460</ele>
        <time>2010-08-28T10:06:48Z</time>
      </trkpt>
      <trkpt lat="43.75341" lon="7.25542">
        <ele>458</ele>
        <time>2010-08-28T10:06:52Z</time>
      </trkpt>
      <trkpt lat="43.75347" lon="7.25526">
        <ele>456</ele>
        <time>2010-08-28T10:06:56Z</time>
      </trkpt>
      <trkpt lat="43.75352" lon="7.25511">
        <ele>455</ele>
        <time>2010-08-28T10:07:01Z</time>
      </trkpt>
      <trkpt lat="43.75353" lon="7.25508">
        <ele>455</ele>
        <time>2010-08-28T10:07:02Z</time>
      </trkpt>
      <trkpt lat="43.75359" lon="7.25494">
        <ele>449</ele>
        <time>2010-08-28T10:07:07Z</time>
      </trkpt>
      <trkpt lat="43.75363" lon="7.25478">
        <ele>448</ele>
        <time>2010-08-28T10:07:11Z</time>
      </trkpt>
      <trkpt lat="43.75361" lon="7.25477">
        <ele>448</ele>
        <time>2010-08-28T10:07:16Z</time>
      </trkpt>
      <trkpt lat="43.75359" lon="7.2547">
        <ele>448</ele>
        <time>2010-08-28T10:07:21Z</time>
      </trkpt>
      <trkpt lat="43.75357" lon="7.25454">
        <ele>446</ele>
        <time>2010-08-28T10:07:27Z</time>
      </trkpt>
      <trkpt lat="43.75357" lon="7.25451">
        <ele>446</ele>
        <time>2010-08-28T10:07:28Z</time>
      </trkpt>
      <trkpt lat="43.75358" lon="7.25433">
        <ele>445</ele>
        <time>2010-08-28T10:07:33Z</time>
      </trkpt>
      <trkpt lat="43.75356" lon="7.25417">
        <ele>443</ele>
        <time>2010-08-28T10:07:38Z</time>
      </trkpt>
      <trkpt lat="43.75355" lon="7.25402">
        <ele>437</ele>
        <time>2010-08-28T10:07:42Z</time>
      </trkpt>
      <trkpt lat="43.75353" lon="7.25383">
        <ele>436</ele>
        <time>2010-08-28T10:07:47Z</time>
      </trkpt>
      <trkpt lat="43.75352" lon="7.25368">
        <ele>435</ele>
        <time>2010-08-28T10:07:51Z</time>
      </trkpt>
      <trkpt lat="43.75351" lon="7.25343">
        <ele>433</ele>
        <time>2010-08-28T10:07:57Z</time>
      </trkpt>
      <trkpt lat="43.75348" lon="7.25323">
        <ele>429</ele>
        <time>2010-08-28T10:08:02Z</time>
      </trkpt>
      <trkpt lat="43.75347" lon="7.2532">
        <ele>429</ele>
        <time>2010-08-28T10:08:03Z</time>
      </trkpt>
      <trkpt lat="43.75347" lon="7.25319">
        <ele>429</ele>
        <time>2010-08-28T10:08:08Z</time>
      </trkpt>
      <trkpt lat="43.75338" lon="7.25324">
        <ele>429</ele>
        <time>2010-08-28T10:08:12Z</time>
      </trkpt>
      <trkpt lat="43.75329" lon="7.25319">
        <ele>428</ele>
        <time>2010-08-28T10:08:15Z</time>
      </trkpt>
      <trkpt lat="43.75317" lon="7.25314">
        <ele>428</ele>
        <time>2010-08-28T10:08:19Z</time>
      </trkpt>
      <trkpt lat="43.75308" lon="7.25308">
        <ele>428</ele>
        <time>2010-08-28T10:08:23Z</time>
      </trkpt>
      <trkpt lat="43.75299" lon="7.25305">
        <ele>428</ele>
        <time>2010-08-28T10:08:26Z</time>
      </trkpt>
      <trkpt lat="43.7529" lon="7.25303">
        <ele>427</ele>
        <time>2010-08-28T10:08:29Z</time>
      </trkpt>
      <trkpt lat="43.75284" lon="7.25304">
        <ele>427</ele>
        <time>2010-08-28T10:08:31Z</time>
      </trkpt>
      <trkpt lat="43.75266" lon="7.253">
        <ele>427</ele>
        <time>2010-08-28T10:08:36Z</time>
      </trkpt>
      <trkpt lat="43.75255" lon="7.25298">
        <ele>427</ele>
        <time>2010-08-28T10:08:39Z</time>
      </trkpt>
      <trkpt lat="43.75241" lon="7.25294">
        <ele>425</ele>
        <time>2010-08-28T10:08:44Z</time>
      </trkpt>
      <trkpt lat="43.75227" lon="7.25295">
        <ele>425</ele>
        <time>2010-08-28T10:08:49Z</time>
      </trkpt>
      <trkpt lat="43.75208" lon="7.25302">
        <ele>425</ele>
        <time>2010-08-28T10:08:55Z</time>
      </trkpt>
      <trkpt lat="43.75196" lon="7.25303">
        <ele>425</ele>
        <time>2010-08-28T10:08:59Z</time>
      </trkpt>
      <trkpt lat="43.75194" lon="7.25306">
        <ele>424</ele>
        <time>2010-08-28T10:09:00Z</time>
      </trkpt>
      <trkpt lat="43.75183" lon="7.25314">
        <ele>424</ele>
        <time>2010-08-28T10:09:05Z</time>
      </trkpt>
      <trkpt lat="43.75173" lon="7.25319">
        <ele>423</ele>
        <time>2010-08-28T10:09:10Z</time>
      </trkpt>
      <trkpt lat="43.75172" lon="7.2532">
        <ele>423</ele>
        <time>2010-08-28T10:09:15Z</time>
      </trkpt>
      <trkpt lat="43.75174" lon="7.25321">
        <ele>423</ele>
        <time>2010-08-28T10:09:24Z</time>
      </trkpt>
      <trkpt lat="43.75176" lon="7.25321">
        <ele>423</ele>
        <time>2010-08-28T10:09:49Z</time>
      </trkpt>
      <trkpt lat="43.75173" lon="7.25319">
        <ele>423</ele>
        <time>2010-08-28T10:09:55Z</time>
      </trkpt>
      <trkpt lat="43.75168" lon="7.25309">
        <ele>424</ele>
        <time>2010-08-28T10:10:02Z</time>
      </trkpt>
      <trkpt lat="43.75168" lon="7.25306">
        <ele>424</ele>
        <time>2010-08-28T10:10:04Z</time>
      </trkpt>
      <trkpt lat="43.75166" lon="7.25302">
        <ele>422</ele>
        <time>2010-08-28T10:10:08Z</time>
      </trkpt>
      <trkpt lat="43.75162" lon="7.25298">
        <ele>423</ele>
        <time>2010-08-28T10:10:15Z</time>
      </trkpt>
      <trkpt lat="43.75152" lon="7.25291">
        <ele>423</ele>
        <time>2010-08-28T10:10:20Z</time>
      </trkpt>
      <trkpt lat="43.75147" lon="7.25285">
        <ele>423</ele>
        <time>2010-08-28T10:10:23Z</time>
      </trkpt>
      <trkpt lat="43.75136" lon="7.25286">
        <ele>423</ele>
        <time>2010-08-28T10:10:27Z</time>
      </trkpt>
      <trkpt lat="43.75127" lon="7.25289">
        <ele>422</ele>
        <time>2010-08-28T10:10:30Z</time>
      </trkpt>
      <trkpt lat="43.75111" lon="7.25294">
        <ele>422</ele>
        <time>2010-08-28T10:10:36Z</time>
      </trkpt>
      <trkpt lat="43.75109" lon="7.25293">
        <ele>422</ele>
        <time>2010-08-28T10:10:45Z</time>
      </trkpt>
      <trkpt lat="43.75104" lon="7.25294">
        <ele>422</ele>
        <time>2010-08-28T10:10:47Z</time>
      </trkpt>
      <trkpt lat="43.75096" lon="7.25303">
        <ele>421</ele>
        <time>2010-08-28T10:10:51Z</time>
      </trkpt>
      <trkpt lat="43.75078" lon="7.25303">
        <ele>419</ele>
        <time>2010-08-28T10:10:57Z</time>
      </trkpt>
      <trkpt lat="43.75074" lon="7.25299">
        <ele>419</ele>
        <time>2010-08-28T10:10:59Z</time>
      </trkpt>
      <trkpt lat="43.75061" lon="7.25298">
        <ele>419</ele>
        <time>2010-08-28T10:11:04Z</time>
      </trkpt>
      <trkpt lat="43.75051" lon="7.25288">
        <ele>419</ele>
        <time>2010-08-28T10:11:09Z</time>
      </trkpt>
      <trkpt lat="43.75042" lon="7.25284">
        <ele>419</ele>
        <time>2010-08-28T10:11:14Z</time>
      </trkpt>
      <trkpt lat="43.75033" lon="7.25284">
        <ele>419</ele>
        <time>2010-08-28T10:11:20Z</time>
      </trkpt>
      <trkpt lat="43.75025" lon="7.2528">
        <ele>419</ele>
        <time>2010-08-28T10:11:23Z</time>
      </trkpt>
      <trkpt lat="43.75019" lon="7.2527">
        <ele>420</ele>
        <time>2010-08-28T10:11:29Z</time>
      </trkpt>
      <trkpt lat="43.75019" lon="7.25269">
        <ele>420</ele>
        <time>2010-08-28T10:11:35Z</time>
      </trkpt>
      <trkpt lat="43.7502" lon="7.25268">
        <ele>420</ele>
        <time>2010-08-28T10:11:46Z</time>
      </trkpt>
      <trkpt lat="43.75022" lon="7.25273">
        <ele>420</ele>
        <time>2010-08-28T10:12:10Z</time>
      </trkpt>
      <trkpt lat="43.75025" lon="7.25278">
        <ele>419</ele>
        <time>2010-08-28T10:12:15Z</time>
      </trkpt>
      <trkpt lat="43.75026" lon="7.25279">
        <ele>419</ele>
        <time>2010-08-28T10:12:20Z</time>
      </trkpt>
      <trkpt lat="43.75031" lon="7.25283">
        <ele>419</ele>
        <time>2010-08-28T10:12:25Z</time>
      </trkpt>
      <trkpt lat="43.75036" lon="7.25285">
        <ele>419</ele>
        <time>2010-08-28T10:12:33Z</time>
      </trkpt>
      <trkpt lat="43.75038" lon="7.25285">
        <ele>419</ele>
        <time>2010-08-28T10:12:45Z</time>
      </trkpt>
      <trkpt lat="43.7504" lon="7.25285">
        <ele>419</ele>
        <time>2010-08-28T10:12:46Z</time>
      </trkpt>
      <trkpt lat="43.75049" lon="7.25288">
        <ele>419</ele>
        <time>2010-08-28T10:12:50Z</time>
      </trkpt>
      <trkpt lat="43.75051" lon="7.2529">
        <ele>419</ele>
        <time>2010-08-28T10:12:51Z</time>
      </trkpt>
      <trkpt lat="43.75057" lon="7.25298">
        <ele>419</ele>
        <time>2010-08-28T10:12:57Z</time>
      </trkpt>
      <trkpt lat="43.75055" lon="7.25299">
        <ele>419</ele>
        <time>2010-08-28T10:13:02Z</time>
      </trkpt>
      <trkpt lat="43.75059" lon="7.253">
        <ele>419</ele>
        <time>2010-08-28T10:13:05Z</time>
      </trkpt>
      <trkpt lat="43.75073" lon="7.25307">
        <ele>419</ele>
        <time>2010-08-28T10:13:10Z</time>
      </trkpt>
      <trkpt lat="43.75085" lon="7.2531">
        <ele>420</ele>
        <time>2010-08-28T10:13:15Z</time>
      </trkpt>
      <trkpt lat="43.75096" lon="7.25301">
        <ele>421</ele>
        <time>2010-08-28T10:13:19Z</time>
      </trkpt>
      <trkpt lat="43.75109" lon="7.25296">
        <ele>422</ele>
        <time>2010-08-28T10:13:24Z</time>
      </trkpt>
      <trkpt lat="43.75123" lon="7.25292">
        <ele>422</ele>
        <time>2010-08-28T10:13:29Z</time>
      </trkpt>
      <trkpt lat="43.75136" lon="7.25289">
        <ele>422</ele>
        <time>2010-08-28T10:13:34Z</time>
      </trkpt>
      <trkpt lat="43.75145" lon="7.25301">
        <ele>422</ele>
        <time>2010-08-28T10:13:39Z</time>
      </trkpt>
      <trkpt lat="43.75153" lon="7.25309">
        <ele>422</ele>
        <time>2010-08-28T10:13:43Z</time>
      </trkpt>
      <trkpt lat="43.75155" lon="7.25312">
        <ele>422</ele>
        <time>2010-08-28T10:13:44Z</time>
      </trkpt>
      <trkpt lat="43.7516" lon="7.25315">
        <ele>422</ele>
        <time>2010-08-28T10:13:46Z</time>
      </trkpt>
      <trkpt lat="43.75162" lon="7.25323">
        <ele>422</ele>
        <time>2010-08-28T10:13:52Z</time>
      </trkpt>
      <trkpt lat="43.7516" lon="7.25326">
        <ele>422</ele>
        <time>2010-08-28T10:13:59Z</time>
      </trkpt>
      <trkpt lat="43.7515" lon="7.25326">
        <ele>422</ele>
        <time>2010-08-28T10:14:04Z</time>
      </trkpt>
      <trkpt lat="43.75146" lon="7.2533">
        <ele>422</ele>
        <time>2010-08-28T10:14:09Z</time>
      </trkpt>
      <trkpt lat="43.75144" lon="7.25331">
        <ele>422</ele>
        <time>2010-08-28T10:14:10Z</time>
      </trkpt>
      <trkpt lat="43.75136" lon="7.25329">
        <ele>422</ele>
        <time>2010-08-28T10:14:14Z</time>
      </trkpt>
      <trkpt lat="43.7512" lon="7.25338">
        <ele>418</ele>
        <time>2010-08-28T10:14:20Z</time>
      </trkpt>
      <trkpt lat="43.75114" lon="7.25346">
        <ele>417</ele>
        <time>2010-08-28T10:14:24Z</time>
      </trkpt>
      <trkpt lat="43.7511" lon="7.25357">
        <ele>417</ele>
        <time>2010-08-28T10:14:28Z</time>
      </trkpt>
      <trkpt lat="43.751" lon="7.25371">
        <ele>416</ele>
        <time>2010-08-28T10:14:34Z</time>
      </trkpt>
      <trkpt lat="43.75096" lon="7.25377">
        <ele>416</ele>
        <time>2010-08-28T10:14:36Z</time>
      </trkpt>
      <trkpt lat="43.75083" lon="7.25392">
        <ele>410</ele>
        <time>2010-08-28T10:14:42Z</time>
      </trkpt>
      <trkpt lat="43.75077" lon="7.25401">
        <ele>410</ele>
        <time>2010-08-28T10:14:45Z</time>
      </trkpt>
      <trkpt lat="43.75075" lon="7.25408">
        <ele>410</ele>
        <time>2010-08-28T10:14:51Z</time>
      </trkpt>
      <trkpt lat="43.75073" lon="7.25412">
        <ele>410</ele>
        <time>2010-08-28T10:15:05Z</time>
      </trkpt>
      <trkpt lat="43.75072" lon="7.25417">
        <ele>408</ele>
        <time>2010-08-28T10:15:15Z</time>
      </trkpt>
      <trkpt lat="43.75071" lon="7.2542">
        <ele>408</ele>
        <time>2010-08-28T10:15:20Z</time>
      </trkpt>
      <trkpt lat="43.75069" lon="7.25421">
        <ele>408</ele>
        <time>2010-08-28T10:15:21Z</time>
      </trkpt>
      <trkpt lat="43.75056" lon="7.25426">
        <ele>406</ele>
        <time>2010-08-28T10:15:26Z</time>
      </trkpt>
      <trkpt lat="43.75053" lon="7.25428">
        <ele>406</ele>
        <time>2010-08-28T10:15:27Z</time>
      </trkpt>
      <trkpt lat="43.75044" lon="7.25441">
        <ele>406</ele>
        <time>2010-08-28T10:15:32Z</time>
      </trkpt>
      <trkpt lat="43.75034" lon="7.25435">
        <ele>405</ele>
        <time>2010-08-28T10:15:37Z</time>
      </trkpt>
      <trkpt lat="43.7503" lon="7.25438">
        <ele>405</ele>
        <time>2010-08-28T10:15:40Z</time>
      </trkpt>
      <trkpt lat="43.75021" lon="7.25438">
        <ele>404</ele>
        <time>2010-08-28T10:15:44Z</time>
      </trkpt>
      <trkpt lat="43.7501" lon="7.25437">
        <ele>403</ele>
        <time>2010-08-28T10:15:48Z</time>
      </trkpt>
      <trkpt lat="43.75" lon="7.25432">
        <ele>402</ele>
        <time>2010-08-28T10:15:51Z</time>
      </trkpt>
      <trkpt lat="43.74992" lon="7.25431">
        <ele>399</ele>
        <time>2010-08-28T10:15:54Z</time>
      </trkpt>
      <trkpt lat="43.74982" lon="7.2543">
        <ele>399</ele>
        <time>2010-08-28T10:15:58Z</time>
      </trkpt>
      <trkpt lat="43.74972" lon="7.25427">
        <ele>399</ele>
        <time>2010-08-28T10:16:02Z</time>
      </trkpt>
      <trkpt lat="43.7496" lon="7.25428">
        <ele>398</ele>
        <time>2010-08-28T10:16:06Z</time>
      </trkpt>
      <trkpt lat="43.74954" lon="7.25429">
        <ele>398</ele>
        <time>2010-08-28T10:16:08Z</time>
      </trkpt>
      <trkpt lat="43.74936" lon="7.25428">
        <ele>397</ele>
        <time>2010-08-28T10:16:14Z</time>
      </trkpt>
      <trkpt lat="43.74923" lon="7.25424">
        <ele>396</ele>
        <time>2010-08-28T10:16:18Z</time>
      </trkpt>
      <trkpt lat="43.7491" lon="7.25425">
        <ele>395</ele>
        <time>2010-08-28T10:16:22Z</time>
      </trkpt>
      <trkpt lat="43.74902" lon="7.25429">
        <ele>395</ele>
        <time>2010-08-28T10:16:27Z</time>
      </trkpt>
      <trkpt lat="43.74891" lon="7.25425">
        <ele>395</ele>
        <time>2010-08-28T10:16:30Z</time>
      </trkpt>
      <trkpt lat="43.74878" lon="7.25425">
        <ele>394</ele>
        <time>2010-08-28T10:16:34Z</time>
      </trkpt>
      <trkpt lat="43.74862" lon="7.25417">
        <ele>393</ele>
        <time>2010-08-28T10:16:39Z</time>
      </trkpt>
      <trkpt lat="43.74847" lon="7.25409">
        <ele>393</ele>
        <time>2010-08-28T10:16:44Z</time>
      </trkpt>
      <trkpt lat="43.74831" lon="7.25399">
        <ele>389</ele>
        <time>2010-08-28T10:16:50Z</time>
      </trkpt>
      <trkpt lat="43.74828" lon="7.25397">
        <ele>389</ele>
        <time>2010-08-28T10:16:51Z</time>
      </trkpt>
      <trkpt lat="43.74813" lon="7.25384">
        <ele>389</ele>
        <time>2010-08-28T10:16:57Z</time>
      </trkpt>
      <trkpt lat="43.74801" lon="7.25378">
        <ele>389</ele>
        <time>2010-08-28T10:17:01Z</time>
      </trkpt>
      <trkpt lat="43.74784" lon="7.25369">
        <ele>388</ele>
        <time>2010-08-28T10:17:07Z</time>
      </trkpt>
      <trkpt lat="43.74777" lon="7.25368">
        <ele>387</ele>
        <time>2010-08-28T10:17:14Z</time>
      </trkpt>
      <trkpt lat="43.74773" lon="7.25369">
        <ele>387</ele>
        <time>2010-08-28T10:17:23Z</time>
      </trkpt>
      <trkpt lat="43.74772" lon="7.25369">
        <ele>387</ele>
        <time>2010-08-28T10:17:29Z</time>
      </trkpt>
      <trkpt lat="43.7477" lon="7.2537">
        <ele>387</ele>
        <time>2010-08-28T10:17:34Z</time>
      </trkpt>
      <trkpt lat="43.74773" lon="7.25371">
        <ele>387</ele>
        <time>2010-08-28T10:17:36Z</time>
      </trkpt>
      <trkpt lat="43.74774" lon="7.25378">
        <ele>387</ele>
        <time>2010-08-28T10:17:41Z</time>
      </trkpt>
      <trkpt lat="43.74775" lon="7.25381">
        <ele>387</ele>
        <time>2010-08-28T10:17:43Z</time>
      </trkpt>
      <trkpt lat="43.74775" lon="7.25387">
        <ele>387</ele>
        <time>2010-08-28T10:17:48Z</time>
      </trkpt>
      <trkpt lat="43.74773" lon="7.25394">
        <ele>386</ele>
        <time>2010-08-28T10:17:53Z</time>
      </trkpt>
      <trkpt lat="43.74774" lon="7.254">
        <ele>386</ele>
        <time>2010-08-28T10:17:56Z</time>
      </trkpt>
      <trkpt lat="43.74775" lon="7.25408">
        <ele>386</ele>
        <time>2010-08-28T10:18:02Z</time>
      </trkpt>
      <trkpt lat="43.74774" lon="7.25416">
        <ele>386</ele>
        <time>2010-08-28T10:18:07Z</time>
      </trkpt>
      <trkpt lat="43.74771" lon="7.25423">
        <ele>388</ele>
        <time>2010-08-28T10:18:12Z</time>
      </trkpt>
      <trkpt lat="43.74772" lon="7.25429">
        <ele>388</ele>
        <time>2010-08-28T10:18:16Z</time>
      </trkpt>
      <trkpt lat="43.74774" lon="7.25435">
        <ele>389</ele>
        <time>2010-08-28T10:18:23Z</time>
      </trkpt>
      <trkpt lat="43.74776" lon="7.25441">
        <ele>389</ele>
        <time>2010-08-28T10:18:28Z</time>
      </trkpt>
      <trkpt lat="43.74774" lon="7.25444">
        <ele>389</ele>
        <time>2010-08-28T10:18:35Z</time>
      </trkpt>
      <trkpt lat="43.74774" lon="7.25445">
        <ele>389</ele>
        <time>2010-08-28T10:18:47Z</time>
      </trkpt>
      <trkpt lat="43.74777" lon="7.25442">
        <ele>389</ele>
        <time>2010-08-28T10:18:53Z</time>
      </trkpt>
      <trkpt lat="43.74777" lon="7.25439">
        <ele>389</ele>
        <time>2010-08-28T10:18:58Z</time>
      </trkpt>
      <trkpt lat="43.74772" lon="7.25439">
        <ele>389</ele>
        <time>2010-08-28T10:19:04Z</time>
      </trkpt>
      <trkpt lat="43.74772" lon="7.25433">
        <ele>388</ele>
        <time>2010-08-28T10:19:10Z</time>
      </trkpt>
      <trkpt lat="43.74772" lon="7.25425">
        <ele>388</ele>
        <time>2010-08-28T10:19:15Z</time>
      </trkpt>
      <trkpt lat="43.74776" lon="7.25419">
        <ele>388</ele>
        <time>2010-08-28T10:19:20Z</time>
      </trkpt>
      <trkpt lat="43.74776" lon="7.25411">
        <ele>386</ele>
        <time>2010-08-28T10:19:24Z</time>
      </trkpt>
      <trkpt lat="43.74776" lon="7.25399">
        <ele>386</ele>
        <time>2010-08-28T10:19:28Z</time>
      </trkpt>
      <trkpt lat="43.74783" lon="7.25387">
        <ele>387</ele>
        <time>2010-08-28T10:19:34Z</time>
      </trkpt>
      <trkpt lat="43.74781" lon="7.25385">
        <ele>387</ele>
        <time>2010-08-28T10:19:36Z</time>
      </trkpt>
      <trkpt lat="43.74778" lon="7.2538">
        <ele>387</ele>
        <time>2010-08-28T10:19:38Z</time>
      </trkpt>
      <trkpt lat="43.74774" lon="7.25371">
        <ele>387</ele>
        <time>2010-08-28T10:19:43Z</time>
      </trkpt>
      <trkpt lat="43.74774" lon="7.2537">
        <ele>387</ele>
        <time>2010-08-28T10:19:44Z</time>
      </trkpt>
      <trkpt lat="43.74772" lon="7.25369">
        <ele>387</ele>
        <time>2010-08-28T10:19:51Z</time>
      </trkpt>
      <trkpt lat="43.74772" lon="7.25367">
        <ele>387</ele>
        <time>2010-08-28T10:19:56Z</time>
      </trkpt>
      <trkpt lat="43.74776" lon="7.25363">
        <ele>387</ele>
        <time>2010-08-28T10:20:00Z</time>
      </trkpt>
      <trkpt lat="43.74776" lon="7.25357">
        <ele>387</ele>
        <time>2010-08-28T10:20:02Z</time>
      </trkpt>
      <trkpt lat="43.74766" lon="7.25347">
        <ele>386</ele>
        <time>2010-08-28T10:20:07Z</time>
      </trkpt>
      <trkpt lat="43.74763" lon="7.25346">
        <ele>385</ele>
        <time>2010-08-28T10:20:09Z</time>
      </trkpt>
      <trkpt lat="43.74749" lon="7.25344">
        <ele>381</ele>
        <time>2010-08-28T10:20:16Z</time>
      </trkpt>
      <trkpt lat="43.74729" lon="7.25344">
        <ele>381</ele>
        <time>2010-08-28T10:20:21Z</time>
      </trkpt>
      <trkpt lat="43.74716" lon="7.25346">
        <ele>380</ele>
        <time>2010-08-28T10:20:25Z</time>
      </trkpt>
      <trkpt lat="43.74702" lon="7.25352">
        <ele>379</ele>
        <time>2010-08-28T10:20:30Z</time>
      </trkpt>
      <trkpt lat="43.74691" lon="7.25355">
        <ele>379</ele>
        <time>2010-08-28T10:20:35Z</time>
      </trkpt>
      <trkpt lat="43.7468" lon="7.25352">
        <ele>377</ele>
        <time>2010-08-28T10:20:41Z</time>
      </trkpt>
      <trkpt lat="43.74667" lon="7.25343">
        <ele>375</ele>
        <time>2010-08-28T10:20:46Z</time>
      </trkpt>
      <trkpt lat="43.7466" lon="7.25334">
        <ele>375</ele>
        <time>2010-08-28T10:20:50Z</time>
      </trkpt>
      <trkpt lat="43.74646" lon="7.25316">
        <ele>375</ele>
        <time>2010-08-28T10:20:55Z</time>
      </trkpt>
      <trkpt lat="43.74639" lon="7.25303">
        <ele>375</ele>
        <time>2010-08-28T10:20:59Z</time>
      </trkpt>
      <trkpt lat="43.74637" lon="7.25296">
        <ele>375</ele>
        <time>2010-08-28T10:21:01Z</time>
      </trkpt>
      <trkpt lat="43.74639" lon="7.2529">
        <ele>375</ele>
        <time>2010-08-28T10:21:04Z</time>
      </trkpt>
      <trkpt lat="43.74638" lon="7.25284">
        <ele>375</ele>
        <time>2010-08-28T10:21:11Z</time>
      </trkpt>
      <trkpt lat="43.74636" lon="7.25283">
        <ele>375</ele>
        <time>2010-08-28T10:21:15Z</time>
      </trkpt>
      <trkpt lat="43.74632" lon="7.25276">
        <ele>375</ele>
        <time>2010-08-28T10:21:19Z</time>
      </trkpt>
      <trkpt lat="43.74632" lon="7.25274">
        <ele>375</ele>
        <time>2010-08-28T10:21:21Z</time>
      </trkpt>
      <trkpt lat="43.74626" lon="7.25269">
        <ele>374</ele>
        <time>2010-08-28T10:21:29Z</time>
      </trkpt>
      <trkpt lat="43.74626" lon="7.25269">
        <ele>374</ele>
        <time>2010-08-28T10:21:34Z</time>
      </trkpt>
      <trkpt lat="43.74631" lon="7.25277">
        <ele>375</ele>
        <time>2010-08-28T10:21:39Z</time>
      </trkpt>
      <trkpt lat="43.74633" lon="7.25287">
        <ele>375</ele>
        <time>2010-08-28T10:21:44Z</time>
      </trkpt>
      <trkpt lat="43.74634" lon="7.25289">
        <ele>375</ele>
        <time>2010-08-28T10:21:45Z</time>
      </trkpt>
      <trkpt lat="43.74636" lon="7.25292">
        <ele>375</ele>
        <time>2010-08-28T10:21:50Z</time>
      </trkpt>
      <trkpt lat="43.74638" lon="7.25292">
        <ele>375</ele>
        <time>2010-08-28T10:21:55Z</time>
      </trkpt>
      <trkpt lat="43.74638" lon="7.25291">
        <ele>375</ele>
        <time>2010-08-28T10:21:56Z</time>
      </trkpt>
      <trkpt lat="43.7464" lon="7.25287">
        <ele>375</ele>
        <time>2010-08-28T10:21:59Z</time>
      </trkpt>
      <trkpt lat="43.74645" lon="7.25283">
        <ele>375</ele>
        <time>2010-08-28T10:22:03Z</time>
      </trkpt>
      <trkpt lat="43.74649" lon="7.25275">
        <ele>374</ele>
        <time>2010-08-28T10:22:08Z</time>
      </trkpt>
      <trkpt lat="43.74651" lon="7.25272">
        <ele>374</ele>
        <time>2010-08-28T10:22:12Z</time>
      </trkpt>
      <trkpt lat="43.74652" lon="7.25265">
        <ele>374</ele>
        <time>2010-08-28T10:22:17Z</time>
      </trkpt>
      <trkpt lat="43.74655" lon="7.25263">
        <ele>374</ele>
        <time>2010-08-28T10:22:20Z</time>
      </trkpt>
      <trkpt lat="43.74657" lon="7.25266">
        <ele>374</ele>
        <time>2010-08-28T10:22:26Z</time>
      </trkpt>
      <trkpt lat="43.74659" lon="7.25266">
        <ele>374</ele>
        <time>2010-08-28T10:22:32Z</time>
      </trkpt>
      <trkpt lat="43.74655" lon="7.25261">
        <ele>374</ele>
        <time>2010-08-28T10:22:38Z</time>
      </trkpt>
      <trkpt lat="43.74649" lon="7.25268">
        <ele>374</ele>
        <time>2010-08-28T10:22:45Z</time>
      </trkpt>
      <trkpt lat="43.74642" lon="7.25271">
        <ele>374</ele>
        <time>2010-08-28T10:23:00Z</time>
      </trkpt>
      <trkpt lat="43.74637" lon="7.25268">
        <ele>374</ele>
        <time>2010-08-28T10:23:07Z</time>
      </trkpt>
      <trkpt lat="43.74639" lon="7.25265">
        <ele>374</ele>
        <time>2010-08-28T10:23:26Z</time>
      </trkpt>
      <trkpt lat="43.74639" lon="7.25264">
        <ele>374</ele>
        <time>2010-08-28T10:23:31Z</time>
      </trkpt>
      <trkpt lat="43.74639" lon="7.25262">
        <ele>374</ele>
        <time>2010-08-28T10:23:36Z</time>
      </trkpt>
      <trkpt lat="43.7464" lon="7.25266">
        <ele>374</ele>
        <time>2010-08-28T10:23:40Z</time>
      </trkpt>
      <trkpt lat="43.74638" lon="7.2527">
        <ele>374</ele>
        <time>2010-08-28T10:23:45Z</time>
      </trkpt>
      <trkpt lat="43.74636" lon="7.25275">
        <ele>375</ele>
        <time>2010-08-28T10:23:47Z</time>
      </trkpt>
      <trkpt lat="43.74634" lon="7.25283">
        <ele>375</ele>
        <time>2010-08-28T10:23:52Z</time>
      </trkpt>
      <trkpt lat="43.74634" lon="7.25293">
        <ele>375</ele>
        <time>2010-08-28T10:23:55Z</time>
      </trkpt>
      <trkpt lat="43.74631" lon="7.25299">
        <ele>375</ele>
        <time>2010-08-28T10:24:00Z</time>
      </trkpt>
      <trkpt lat="43.74631" lon="7.25299">
        <ele>375</ele>
        <time>2010-08-28T10:24:08Z</time>
      </trkpt>
      <trkpt lat="43.74628" lon="7.25298">
        <ele>375</ele>
        <time>2010-08-28T10:24:12Z</time>
      </trkpt>
      <trkpt lat="43.74625" lon="7.25294">
        <ele>375</ele>
        <time>2010-08-28T10:24:16Z</time>
      </trkpt>
      <trkpt lat="43.74617" lon="7.25291">
        <ele>375</ele>
        <time>2010-08-28T10:24:23Z</time>
      </trkpt>
      <trkpt lat="43.74614" lon="7.25287">
        <ele>375</ele>
        <time>2010-08-28T10:24:27Z</time>
      </trkpt>
      <trkpt lat="43.74613" lon="7.25285">
        <ele>375</ele>
        <time>2010-08-28T10:24:28Z</time>
      </trkpt>
      <trkpt lat="43.7461" lon="7.25281">
        <ele>375</ele>
        <time>2010-08-28T10:24:33Z</time>
      </trkpt>
      <trkpt lat="43.74601" lon="7.25271">
        <ele>374</ele>
        <time>2010-08-28T10:24:41Z</time>
      </trkpt>
      <trkpt lat="43.746" lon="7.25271">
        <ele>374</ele>
        <time>2010-08-28T10:24:42Z</time>
      </trkpt>
      <trkpt lat="43.74595" lon="7.25271">
        <ele>374</ele>
        <time>2010-08-28T10:24:47Z</time>
      </trkpt>
      <trkpt lat="43.74591" lon="7.25273">
        <ele>374</ele>
        <time>2010-08-28T10:24:51Z</time>
      </trkpt>
      <trkpt lat="43.74589" lon="7.25273">
        <ele>374</ele>
        <time>2010-08-28T10:24:53Z</time>
      </trkpt>
      <trkpt lat="43.74584" lon="7.25269">
        <ele>373</ele>
        <time>2010-08-28T10:24:57Z</time>
      </trkpt>
      <trkpt lat="43.74577" lon="7.25261">
        <ele>375</ele>
        <time>2010-08-28T10:25:03Z</time>
      </trkpt>
      <trkpt lat="43.74574" lon="7.25258">
        <ele>375</ele>
        <time>2010-08-28T10:25:07Z</time>
      </trkpt>
      <trkpt lat="43.74564" lon="7.25247">
        <ele>369</ele>
        <time>2010-08-28T10:25:15Z</time>
      </trkpt>
      <trkpt lat="43.74561" lon="7.25244">
        <ele>369</ele>
        <time>2010-08-28T10:25:18Z</time>
      </trkpt>
      <trkpt lat="43.74553" lon="7.25239">
        <ele>369</ele>
        <time>2010-08-28T10:25:25Z</time>
      </trkpt>
      <trkpt lat="43.7455" lon="7.25238">
        <ele>370</ele>
        <time>2010-08-28T10:25:28Z</time>
      </trkpt>
      <trkpt lat="43.74546" lon="7.2524">
        <ele>370</ele>
        <time>2010-08-28T10:25:33Z</time>
      </trkpt>
      <trkpt lat="43.74545" lon="7.2524">
        <ele>370</ele>
        <time>2010-08-28T10:25:34Z</time>
      </trkpt>
      <trkpt lat="43.7454" lon="7.25243">
        <ele>371</ele>
        <time>2010-08-28T10:25:41Z</time>
      </trkpt>
      <trkpt lat="43.74533" lon="7.25245">
        <ele>372</ele>
        <time>2010-08-28T10:25:48Z</time>
      </trkpt>
      <trkpt lat="43.74532" lon="7.25245">
        <ele>372</ele>
        <time>2010-08-28T10:25:49Z</time>
      </trkpt>
      <trkpt lat="43.74526" lon="7.25244">
        <ele>374</ele>
        <time>2010-08-28T10:25:55Z</time>
      </trkpt>
      <trkpt lat="43.74521" lon="7.25245">
        <ele>375</ele>
        <time>2010-08-28T10:26:01Z</time>
      </trkpt>
      <trkpt lat="43.74519" lon="7.25246">
        <ele>376</ele>
        <time>2010-08-28T10:26:03Z</time>
      </trkpt>
      <trkpt lat="43.74513" lon="7.25249">
        <ele>378</ele>
        <time>2010-08-28T10:26:11Z</time>
      </trkpt>
      <trkpt lat="43.7451" lon="7.25255">
        <ele>384</ele>
        <time>2010-08-28T10:26:18Z</time>
      </trkpt>
      <trkpt lat="43.74506" lon="7.25258">
        <ele>384</ele>
        <time>2010-08-28T10:26:23Z</time>
      </trkpt>
      <trkpt lat="43.74506" lon="7.2526">
        <ele>384</ele>
        <time>2010-08-28T10:26:29Z</time>
      </trkpt>
      <trkpt lat="43.745" lon="7.25264">
        <ele>385</ele>
        <time>2010-08-28T10:26:35Z</time>
      </trkpt>
      <trkpt lat="43.74496" lon="7.25267">
        <ele>384</ele>
        <time>2010-08-28T10:26:39Z</time>
      </trkpt>
      <trkpt lat="43.74491" lon="7.25273">
        <ele>385</ele>
        <time>2010-08-28T10:26:45Z</time>
      </trkpt>
      <trkpt lat="43.74488" lon="7.25278">
        <ele>385</ele>
        <time>2010-08-28T10:26:51Z</time>
      </trkpt>
      <trkpt lat="43.74486" lon="7.25284">
        <ele>385</ele>
        <time>2010-08-28T10:26:56Z</time>
      </trkpt>
      <trkpt lat="43.74483" lon="7.2529">
        <ele>386</ele>
        <time>2010-08-28T10:27:02Z</time>
      </trkpt>
      <trkpt lat="43.74484" lon="7.25294">
        <ele>387</ele>
        <time>2010-08-28T10:27:05Z</time>
      </trkpt>
      <trkpt lat="43.74486" lon="7.25301">
        <ele>388</ele>
        <time>2010-08-28T10:27:12Z</time>
      </trkpt>
      <trkpt lat="43.74487" lon="7.25306">
        <ele>389</ele>
        <time>2010-08-28T10:27:18Z</time>
      </trkpt>
      <trkpt lat="43.74491" lon="7.25311">
        <ele>390</ele>
        <time>2010-08-28T10:27:23Z</time>
      </trkpt>
      <trkpt lat="43.74494" lon="7.25317">
        <ele>392</ele>
        <time>2010-08-28T10:27:27Z</time>
      </trkpt>
      <trkpt lat="43.74495" lon="7.25325">
        <ele>395</ele>
        <time>2010-08-28T10:27:31Z</time>
      </trkpt>
      <trkpt lat="43.74495" lon="7.25329">
        <ele>396</ele>
        <time>2010-08-28T10:27:34Z</time>
      </trkpt>
      <trkpt lat="43.74489" lon="7.25341">
        <ele>399</ele>
        <time>2010-08-28T10:27:42Z</time>
      </trkpt>
      <trkpt lat="43.74486" lon="7.25345">
        <ele>399</ele>
        <time>2010-08-28T10:27:45Z</time>
      </trkpt>
      <trkpt lat="43.74484" lon="7.25353">
        <ele>399</ele>
        <time>2010-08-28T10:27:50Z</time>
      </trkpt>
      <trkpt lat="43.74481" lon="7.25359">
        <ele>399</ele>
        <time>2010-08-28T10:27:54Z</time>
      </trkpt>
      <trkpt lat="43.74483" lon="7.25366">
        <ele>400</ele>
        <time>2010-08-28T10:28:00Z</time>
      </trkpt>
      <trkpt lat="43.74486" lon="7.25367">
        <ele>400</ele>
        <time>2010-08-28T10:28:02Z</time>
      </trkpt>
      <trkpt lat="43.74495" lon="7.25376">
        <ele>401</ele>
        <time>2010-08-28T10:28:10Z</time>
      </trkpt>
      <trkpt lat="43.74504" lon="7.25384">
        <ele>402</ele>
        <time>2010-08-28T10:28:16Z</time>
      </trkpt>
      <trkpt lat="43.74507" lon="7.2539">
        <ele>403</ele>
        <time>2010-08-28T10:28:20Z</time>
      </trkpt>
      <trkpt lat="43.74509" lon="7.25401">
        <ele>405</ele>
        <time>2010-08-28T10:28:27Z</time>
      </trkpt>
      <trkpt lat="43.74509" lon="7.25402">
        <ele>405</ele>
        <time>2010-08-28T10:28:33Z</time>
      </trkpt>
      <trkpt lat="43.74507" lon="7.25405">
        <ele>406</ele>
        <time>2010-08-28T10:28:45Z</time>
      </trkpt>
      <trkpt lat="43.74508" lon="7.25405">
        <ele>406</ele>
        <time>2010-08-28T10:28:53Z</time>
      </trkpt>
      <trkpt lat="43.74509" lon="7.25404">
        <ele>405</ele>
        <time>2010-08-28T10:29:06Z</time>
      </trkpt>
      <trkpt lat="43.74512" lon="7.25406">
        <ele>405</ele>
        <time>2010-08-28T10:29:10Z</time>
      </trkpt>
      <trkpt lat="43.74512" lon="7.25407">
        <ele>406</ele>
        <time>2010-08-28T10:29:16Z</time>
      </trkpt>
      <trkpt lat="43.7451" lon="7.25404">
        <ele>405</ele>
        <time>2010-08-28T10:29:20Z</time>
      </trkpt>
      <trkpt lat="43.74506" lon="7.25407">
        <ele>407</ele>
        <time>2010-08-28T10:29:25Z</time>
      </trkpt>
      <trkpt lat="43.74502" lon="7.25409">
        <ele>408</ele>
        <time>2010-08-28T10:29:29Z</time>
      </trkpt>
      <trkpt lat="43.74497" lon="7.25413">
        <ele>409</ele>
        <time>2010-08-28T10:29:35Z</time>
      </trkpt>
      <trkpt lat="43.74497" lon="7.2542">
        <ele>410</ele>
        <time>2010-08-28T10:29:40Z</time>
      </trkpt>
      <trkpt lat="43.74493" lon="7.25424">
        <ele>408</ele>
        <time>2010-08-28T10:29:48Z</time>
      </trkpt>
      <trkpt lat="43.7449" lon="7.25425">
        <ele>408</ele>
        <time>2010-08-28T10:29:54Z</time>
      </trkpt>
      <trkpt lat="43.74491" lon="7.25424">
        <ele>408</ele>
        <time>2010-08-28T10:30:05Z</time>
      </trkpt>
      <trkpt lat="43.74492" lon="7.25424">
        <ele>408</ele>
        <time>2010-08-28T10:30:06Z</time>
      </trkpt>
      <trkpt lat="43.74495" lon="7.25423">
        <ele>409</ele>
        <time>2010-08-28T10:30:09Z</time>
      </trkpt>
      <trkpt lat="43.745" lon="7.25435">
        <ele>407</ele>
        <time>2010-08-28T10:30:15Z</time>
      </trkpt>
      <trkpt lat="43.74509" lon="7.25444">
        <ele>405</ele>
        <time>2010-08-28T10:30:20Z</time>
      </trkpt>
      <trkpt lat="43.74523" lon="7.25448">
        <ele>404</ele>
        <time>2010-08-28T10:30:25Z</time>
      </trkpt>
      <trkpt lat="43.74528" lon="7.25458">
        <ele>403</ele>
        <time>2010-08-28T10:30:30Z</time>
      </trkpt>
      <trkpt lat="43.74529" lon="7.25473">
        <ele>403</ele>
        <time>2010-08-28T10:30:35Z</time>
      </trkpt>
      <trkpt lat="43.74529" lon="7.25478">
        <ele>403</ele>
        <time>2010-08-28T10:30:37Z</time>
      </trkpt>
      <trkpt lat="43.74534" lon="7.25491">
        <ele>402</ele>
        <time>2010-08-28T10:30:42Z</time>
      </trkpt>
      <trkpt lat="43.74541" lon="7.25512">
        <ele>399</ele>
        <time>2010-08-28T10:30:48Z</time>
      </trkpt>
      <trkpt lat="43.7454" lon="7.25519">
        <ele>399</ele>
        <time>2010-08-28T10:30:50Z</time>
      </trkpt>
      <trkpt lat="43.74537" lon="7.25531">
        <ele>399</ele>
        <time>2010-08-28T10:30:54Z</time>
      </trkpt>
      <trkpt lat="43.74529" lon="7.25535">
        <ele>399</ele>
        <time>2010-08-28T10:30:59Z</time>
      </trkpt>
      <trkpt lat="43.74515" lon="7.25542">
        <ele>398</ele>
        <time>2010-08-28T10:31:05Z</time>
      </trkpt>
      <trkpt lat="43.74503" lon="7.25543">
        <ele>398</ele>
        <time>2010-08-28T10:31:09Z</time>
      </trkpt>
      <trkpt lat="43.74494" lon="7.25541">
        <ele>398</ele>
        <time>2010-08-28T10:31:13Z</time>
      </trkpt>
      <trkpt lat="43.74488" lon="7.25539">
        <ele>398</ele>
        <time>2010-08-28T10:31:19Z</time>
      </trkpt>
      <trkpt lat="43.74486" lon="7.25538">
        <ele>398</ele>
        <time>2010-08-28T10:31:20Z</time>
      </trkpt>
      <trkpt lat="43.74473" lon="7.25541">
        <ele>397</ele>
        <time>2010-08-28T10:31:26Z</time>
      </trkpt>
      <trkpt lat="43.74466" lon="7.25541">
        <ele>397</ele>
        <time>2010-08-28T10:31:32Z</time>
      </trkpt>
      <trkpt lat="43.74463" lon="7.2554">
        <ele>397</ele>
        <time>2010-08-28T10:31:35Z</time>
      </trkpt>
      <trkpt lat="43.74457" lon="7.25543">
        <ele>397</ele>
        <time>2010-08-28T10:31:40Z</time>
      </trkpt>
      <trkpt lat="43.74449" lon="7.25546">
        <ele>396</ele>
        <time>2010-08-28T10:31:46Z</time>
      </trkpt>
      <trkpt lat="43.74448" lon="7.25546">
        <ele>396</ele>
        <time>2010-08-28T10:31:52Z</time>
      </trkpt>
      <trkpt lat="43.74451" lon="7.25548">
        <ele>396</ele>
        <time>2010-08-28T10:31:56Z</time>
      </trkpt>
      <trkpt lat="43.7445" lon="7.25546">
        <ele>396</ele>
        <time>2010-08-28T10:31:58Z</time>
      </trkpt>
      <trkpt lat="43.74453" lon="7.25544">
        <ele>396</ele>
        <time>2010-08-28T10:32:00Z</time>
      </trkpt>
      <trkpt lat="43.74459" lon="7.25546">
        <ele>397</ele>
        <time>2010-08-28T10:32:05Z</time>
      </trkpt>
      <trkpt lat="43.74461" lon="7.25542">
        <ele>397</ele>
        <time>2010-08-28T10:32:09Z</time>
      </trkpt>
      <trkpt lat="43.74463" lon="7.25542">
        <ele>397</ele>
        <time>2010-08-28T10:32:10Z</time>
      </trkpt>
      <trkpt lat="43.74472" lon="7.25543">
        <ele>397</ele>
        <time>2010-08-28T10:32:16Z</time>
      </trkpt>
      <trkpt lat="43.74473" lon="7.25548">
        <ele>397</ele>
        <time>2010-08-28T10:32:19Z</time>
      </trkpt>
      <trkpt lat="43.74474" lon="7.25549">
        <ele>397</ele>
        <time>2010-08-28T10:32:22Z</time>
      </trkpt>
      <trkpt lat="43.74472" lon="7.25542">
        <ele>397</ele>
        <time>2010-08-28T10:32:25Z</time>
      </trkpt>
      <trkpt lat="43.74478" lon="7.25539">
        <ele>397</ele>
        <time>2010-08-28T10:32:29Z</time>
      </trkpt>
      <trkpt lat="43.74483" lon="7.25538">
        <ele>398</ele>
        <time>2010-08-28T10:32:31Z</time>
      </trkpt>
      <trkpt lat="43.74493" lon="7.25541">
        <ele>398</ele>
        <time>2010-08-28T10:32:35Z</time>
      </trkpt>
      <trkpt lat="43.74506" lon="7.25543">
        <ele>398</ele>
        <time>2010-08-28T10:32:40Z</time>
      </trkpt>
      <trkpt lat="43.74516" lon="7.25542">
        <ele>398</ele>
        <time>2010-08-28T10:32:43Z</time>
      </trkpt>
      <trkpt lat="43.74522" lon="7.25545">
        <ele>398</ele>
        <time>2010-08-28T10:32:47Z</time>
      </trkpt>
      <trkpt lat="43.7452" lon="7.25559">
        <ele>398</ele>
        <time>2010-08-28T10:32:51Z</time>
      </trkpt>
      <trkpt lat="43.74519" lon="7.25563">
        <ele>397</ele>
        <time>2010-08-28T10:32:52Z</time>
      </trkpt>
      <trkpt lat="43.74512" lon="7.25573">
        <ele>397</ele>
        <time>2010-08-28T10:32:56Z</time>
      </trkpt>
      <trkpt lat="43.74506" lon="7.25578">
        <ele>396</ele>
        <time>2010-08-28T10:33:00Z</time>
      </trkpt>
      <trkpt lat="43.74501" lon="7.25584">
        <ele>395</ele>
        <time>2010-08-28T10:33:03Z</time>
      </trkpt>
      <trkpt lat="43.74499" lon="7.25589">
        <ele>394</ele>
        <time>2010-08-28T10:33:05Z</time>
      </trkpt>
      <trkpt lat="43.74496" lon="7.2561">
        <ele>392</ele>
        <time>2010-08-28T10:33:10Z</time>
      </trkpt>
      <trkpt lat="43.74488" lon="7.25619">
        <ele>392</ele>
        <time>2010-08-28T10:33:14Z</time>
      </trkpt>
      <trkpt lat="43.74478" lon="7.2563">
        <ele>391</ele>
        <time>2010-08-28T10:33:18Z</time>
      </trkpt>
      <trkpt lat="43.74471" lon="7.25632">
        <ele>391</ele>
        <time>2010-08-28T10:33:20Z</time>
      </trkpt>
      <trkpt lat="43.74455" lon="7.25634">
        <ele>390</ele>
        <time>2010-08-28T10:33:25Z</time>
      </trkpt>
      <trkpt lat="43.74444" lon="7.25642">
        <ele>389</ele>
        <time>2010-08-28T10:33:29Z</time>
      </trkpt>
      <trkpt lat="43.7443" lon="7.2564">
        <ele>388</ele>
        <time>2010-08-28T10:33:33Z</time>
      </trkpt>
      <trkpt lat="43.74418" lon="7.25641">
        <ele>388</ele>
        <time>2010-08-28T10:33:37Z</time>
      </trkpt>
      <trkpt lat="43.74401" lon="7.25645">
        <ele>384</ele>
        <time>2010-08-28T10:33:42Z</time>
      </trkpt>
      <trkpt lat="43.7438" lon="7.25652">
        <ele>384</ele>
        <time>2010-08-28T10:33:48Z</time>
      </trkpt>
      <trkpt lat="43.74365" lon="7.25651">
        <ele>383</ele>
        <time>2010-08-28T10:33:52Z</time>
      </trkpt>
      <trkpt lat="43.74351" lon="7.25651">
        <ele>383</ele>
        <time>2010-08-28T10:33:56Z</time>
      </trkpt>
      <trkpt lat="43.74336" lon="7.25646">
        <ele>382</ele>
        <time>2010-08-28T10:34:00Z</time>
      </trkpt>
      <trkpt lat="43.74327" lon="7.25642">
        <ele>380</ele>
        <time>2010-08-28T10:34:03Z</time>
      </trkpt>
      <trkpt lat="43.74319" lon="7.25628">
        <ele>380</ele>
        <time>2010-08-28T10:34:07Z</time>
      </trkpt>
      <trkpt lat="43.74311" lon="7.25626">
        <ele>380</ele>
        <time>2010-08-28T10:34:10Z</time>
      </trkpt>
      <trkpt lat="43.74301" lon="7.25625">
        <ele>380</ele>
        <time>2010-08-28T10:34:13Z</time>
      </trkpt>
      <trkpt lat="43.74284" lon="7.25622">
        <ele>379</ele>
        <time>2010-08-28T10:34:19Z</time>
      </trkpt>
      <trkpt lat="43.74272" lon="7.25627">
        <ele>379</ele>
        <time>2010-08-28T10:34:23Z</time>
      </trkpt>
      <trkpt lat="43.7426" lon="7.25637">
        <ele>378</ele>
        <time>2010-08-28T10:34:28Z</time>
      </trkpt>
      <trkpt lat="43.74248" lon="7.25646">
        <ele>373</ele>
        <time>2010-08-28T10:34:33Z</time>
      </trkpt>
      <trkpt lat="43.74236" lon="7.25654">
        <ele>372</ele>
        <time>2010-08-28T10:34:38Z</time>
      </trkpt>
      <trkpt lat="43.74229" lon="7.25645">
        <ele>371</ele>
        <time>2010-08-28T10:34:43Z</time>
      </trkpt>
      <trkpt lat="43.74226" lon="7.25632">
        <ele>371</ele>
        <time>2010-08-28T10:34:47Z</time>
      </trkpt>
      <trkpt lat="43.74225" lon="7.25626">
        <ele>371</ele>
        <time>2010-08-28T10:34:49Z</time>
      </trkpt>
      <trkpt lat="43.74218" lon="7.25607">
        <ele>370</ele>
        <time>2010-08-28T10:34:55Z</time>
      </trkpt>
      <trkpt lat="43.74215" lon="7.25591">
        <ele>370</ele>
        <time>2010-08-28T10:35:00Z</time>
      </trkpt>
      <trkpt lat="43.74216" lon="7.25579">
        <ele>373</ele>
        <time>2010-08-28T10:35:07Z</time>
      </trkpt>
      <trkpt lat="43.74216" lon="7.25569">
        <ele>373</ele>
        <time>2010-08-28T10:35:12Z</time>
      </trkpt>
      <trkpt lat="43.74218" lon="7.25558">
        <ele>373</ele>
        <time>2010-08-28T10:35:17Z</time>
      </trkpt>
      <trkpt lat="43.74222" lon="7.25549">
        <ele>374</ele>
        <time>2010-08-28T10:35:22Z</time>
      </trkpt>
      <trkpt lat="43.74228" lon="7.25544">
        <ele>375</ele>
        <time>2010-08-28T10:35:28Z</time>
      </trkpt>
      <trkpt lat="43.74235" lon="7.25531">
        <ele>376</ele>
        <time>2010-08-28T10:35:36Z</time>
      </trkpt>
      <trkpt lat="43.7424" lon="7.25518">
        <ele>378</ele>
        <time>2010-08-28T10:35:43Z</time>
      </trkpt>
      <trkpt lat="43.74241" lon="7.25514">
        <ele>378</ele>
        <time>2010-08-28T10:35:45Z</time>
      </trkpt>
      <trkpt lat="43.74237" lon="7.25498">
        <ele>381</ele>
        <time>2010-08-28T10:35:53Z</time>
      </trkpt>
      <trkpt lat="43.74234" lon="7.25483">
        <ele>380</ele>
        <time>2010-08-28T10:36:01Z</time>
      </trkpt>
      <trkpt lat="43.74233" lon="7.25478">
        <ele>380</ele>
        <time>2010-08-28T10:36:03Z</time>
      </trkpt>
      <trkpt lat="43.74227" lon="7.25464">
        <ele>380</ele>
        <time>2010-08-28T10:36:11Z</time>
      </trkpt>
      <trkpt lat="43.74223" lon="7.25453">
        <ele>380</ele>
        <time>2010-08-28T10:36:16Z</time>
      </trkpt>
      <trkpt lat="43.74218" lon="7.2544">
        <ele>380</ele>
        <time>2010-08-28T10:36:23Z</time>
      </trkpt>
      <trkpt lat="43.74216" lon="7.25436">
        <ele>380</ele>
        <time>2010-08-28T10:36:25Z</time>
      </trkpt>
      <trkpt lat="43.74211" lon="7.25426">
        <ele>380</ele>
        <time>2010-08-28T10:36:31Z</time>
      </trkpt>
      <trkpt lat="43.74201" lon="7.2542">
        <ele>379</ele>
        <time>2010-08-28T10:36:36Z</time>
      </trkpt>
      <trkpt lat="43.74197" lon="7.25417">
        <ele>379</ele>
        <time>2010-08-28T10:36:38Z</time>
      </trkpt>
      <trkpt lat="43.74193" lon="7.25415">
        <ele>378</ele>
        <time>2010-08-28T10:36:43Z</time>
      </trkpt>
      <trkpt lat="43.74189" lon="7.2542">
        <ele>379</ele>
        <time>2010-08-28T10:36:49Z</time>
      </trkpt>
      <trkpt lat="43.74185" lon="7.25421">
        <ele>379</ele>
        <time>2010-08-28T10:36:52Z</time>
      </trkpt>
      <trkpt lat="43.74182" lon="7.25418">
        <ele>379</ele>
        <time>2010-08-28T10:36:56Z</time>
      </trkpt>
      <trkpt lat="43.74179" lon="7.25408">
        <ele>377</ele>
        <time>2010-08-28T10:37:01Z</time>
      </trkpt>
      <trkpt lat="43.74177" lon="7.254">
        <ele>377</ele>
        <time>2010-08-28T10:37:05Z</time>
      </trkpt>
      <trkpt lat="43.74177" lon="7.254">
        <ele>377</ele>
        <time>2010-08-28T10:37:14Z</time>
      </trkpt>
      <trkpt lat="43.74176" lon="7.25403">
        <ele>377</ele>
        <time>2010-08-28T10:37:23Z</time>
      </trkpt>
      <trkpt lat="43.7418" lon="7.25402">
        <ele>377</ele>
        <time>2010-08-28T10:37:29Z</time>
      </trkpt>
      <trkpt lat="43.74185" lon="7.25404">
        <ele>377</ele>
        <time>2010-08-28T10:37:34Z</time>
      </trkpt>
      <trkpt lat="43.74187" lon="7.25407">
        <ele>377</ele>
        <time>2010-08-28T10:37:38Z</time>
      </trkpt>
      <trkpt lat="43.74189" lon="7.2541">
        <ele>377</ele>
        <time>2010-08-28T10:37:42Z</time>
      </trkpt>
      <trkpt lat="43.74192" lon="7.25411">
        <ele>378</ele>
        <time>2010-08-28T10:37:47Z</time>
      </trkpt>
      <trkpt lat="43.74196" lon="7.25416">
        <ele>378</ele>
        <time>2010-08-28T10:37:51Z</time>
      </trkpt>
      <trkpt lat="43.74206" lon="7.25423">
        <ele>380</ele>
        <time>2010-08-28T10:37:56Z</time>
      </trkpt>
      <trkpt lat="43.74211" lon="7.2543">
        <ele>380</ele>
        <time>2010-08-28T10:37:59Z</time>
      </trkpt>
      <trkpt lat="43.74214" lon="7.25438">
        <ele>380</ele>
        <time>2010-08-28T10:38:03Z</time>
      </trkpt>
      <trkpt lat="43.74221" lon="7.25453">
        <ele>380</ele>
        <time>2010-08-28T10:38:08Z</time>
      </trkpt>
      <trkpt lat="43.74229" lon="7.2547">
        <ele>380</ele>
        <time>2010-08-28T10:38:13Z</time>
      </trkpt>
      <trkpt lat="43.74236" lon="7.25494">
        <ele>381</ele>
        <time>2010-08-28T10:38:18Z</time>
      </trkpt>
      <trkpt lat="43.74237" lon="7.25513">
        <ele>378</ele>
        <time>2010-08-28T10:38:22Z</time>
      </trkpt>
      <trkpt lat="43.74232" lon="7.25532">
        <ele>376</ele>
        <time>2010-08-28T10:38:26Z</time>
      </trkpt>
      <trkpt lat="43.74223" lon="7.25544">
        <ele>374</ele>
        <time>2010-08-28T10:38:30Z</time>
      </trkpt>
      <trkpt lat="43.74221" lon="7.25547">
        <ele>374</ele>
        <time>2010-08-28T10:38:32Z</time>
      </trkpt>
      <trkpt lat="43.74224" lon="7.25552">
        <ele>374</ele>
        <time>2010-08-28T10:38:36Z</time>
      </trkpt>
      <trkpt lat="43.74227" lon="7.25552">
        <ele>374</ele>
        <time>2010-08-28T10:38:37Z</time>
      </trkpt>
      <trkpt lat="43.74232" lon="7.25561">
        <ele>375</ele>
        <time>2010-08-28T10:38:42Z</time>
      </trkpt>
      <trkpt lat="43.74236" lon="7.25566">
        <ele>375</ele>
        <time>2010-08-28T10:38:45Z</time>
      </trkpt>
      <trkpt lat="43.74248" lon="7.25563">
        <ele>375</ele>
        <time>2010-08-28T10:38:50Z</time>
      </trkpt>
      <trkpt lat="43.74258" lon="7.2556">
        <ele>381</ele>
        <time>2010-08-28T10:38:53Z</time>
      </trkpt>
      <trkpt lat="43.74268" lon="7.25559">
        <ele>381</ele>
        <time>2010-08-28T10:38:56Z</time>
      </trkpt>
    </trkseg>
  </trk>
</gpx>